<?xml version="1.0" encoding="UTF-8" standalone="no" ?>
<gpx xmlns="http://www.topografix.com/GPX/1/1" xmlns:xsi="http://www.w3.org/2001/XMLSchema-instance" xsi:schemaLocation="http://www.topografix.com/GPX/1/1 http://www.topografix.com/GPX/1/1/gpx.xsd" version="1.1" creator="VisuGPX - https://www.visugpx.com">
  <metadata>
    <name>21-12-06 Courchevel</name>
  </metadata>
  <trk>
    <name><![CDATA[2021-12-06 14:54:02]]></name>
    <trkseg>
      <trkpt lat="45.40783" lon="6.66035">
        <ele>1730.99</ele>
        <time>2021-12-06T09:10:52Z</time>
      </trkpt>
      <trkpt lat="45.40783" lon="6.66035">
        <ele>1730.99</ele>
        <time>2021-12-06T09:10:53Z</time>
      </trkpt>
      <trkpt lat="45.40781" lon="6.66035">
        <ele>1731.95</ele>
        <time>2021-12-06T09:11:01Z</time>
      </trkpt>
      <trkpt lat="45.40783" lon="6.66034">
        <ele>1731.95</ele>
        <time>2021-12-06T09:11:21Z</time>
      </trkpt>
      <trkpt lat="45.40781" lon="6.66034">
        <ele>1731.47</ele>
        <time>2021-12-06T09:11:34Z</time>
      </trkpt>
      <trkpt lat="45.40781" lon="6.66032">
        <ele>1731.95</ele>
        <time>2021-12-06T09:12:02Z</time>
      </trkpt>
      <trkpt lat="45.40782" lon="6.66032">
        <ele>1731.47</ele>
        <time>2021-12-06T09:12:24Z</time>
      </trkpt>
      <trkpt lat="45.4078" lon="6.66042">
        <ele>1731.47</ele>
        <time>2021-12-06T09:12:41Z</time>
      </trkpt>
      <trkpt lat="45.40788" lon="6.66036">
        <ele>1731.47</ele>
        <time>2021-12-06T09:13:08Z</time>
      </trkpt>
      <trkpt lat="45.40779" lon="6.66047">
        <ele>1731.95</ele>
        <time>2021-12-06T09:13:30Z</time>
      </trkpt>
      <trkpt lat="45.40778" lon="6.66044">
        <ele>1731.47</ele>
        <time>2021-12-06T09:13:56Z</time>
      </trkpt>
      <trkpt lat="45.40778" lon="6.66042">
        <ele>1731.95</ele>
        <time>2021-12-06T09:14:17Z</time>
      </trkpt>
      <trkpt lat="45.40778" lon="6.66039">
        <ele>1731.47</ele>
        <time>2021-12-06T09:14:37Z</time>
      </trkpt>
      <trkpt lat="45.40779" lon="6.66035">
        <ele>1730.99</ele>
        <time>2021-12-06T09:15:05Z</time>
      </trkpt>
      <trkpt lat="45.40781" lon="6.66043">
        <ele>1730.99</ele>
        <time>2021-12-06T09:15:27Z</time>
      </trkpt>
      <trkpt lat="45.40781" lon="6.66044">
        <ele>1730.51</ele>
        <time>2021-12-06T09:15:54Z</time>
      </trkpt>
      <trkpt lat="45.40777" lon="6.66038">
        <ele>1730.99</ele>
        <time>2021-12-06T09:16:19Z</time>
      </trkpt>
      <trkpt lat="45.40783" lon="6.66034">
        <ele>1730.99</ele>
        <time>2021-12-06T09:16:43Z</time>
      </trkpt>
      <trkpt lat="45.40782" lon="6.66039">
        <ele>1730.99</ele>
        <time>2021-12-06T09:17:15Z</time>
      </trkpt>
      <trkpt lat="45.40785" lon="6.66037">
        <ele>1730.99</ele>
        <time>2021-12-06T09:17:41Z</time>
      </trkpt>
      <trkpt lat="45.40783" lon="6.6604">
        <ele>1730.99</ele>
        <time>2021-12-06T09:18:09Z</time>
      </trkpt>
      <trkpt lat="45.40781" lon="6.66033">
        <ele>1730.99</ele>
        <time>2021-12-06T09:18:35Z</time>
      </trkpt>
      <trkpt lat="45.40777" lon="6.66023">
        <ele>1732.43</ele>
        <time>2021-12-06T09:18:50Z</time>
      </trkpt>
      <trkpt lat="45.40773" lon="6.66026">
        <ele>1730.99</ele>
        <time>2021-12-06T09:19:08Z</time>
      </trkpt>
      <trkpt lat="45.40772" lon="6.66031">
        <ele>1730.99</ele>
        <time>2021-12-06T09:19:33Z</time>
      </trkpt>
      <trkpt lat="45.40776" lon="6.66025">
        <ele>1730.51</ele>
        <time>2021-12-06T09:20:00Z</time>
      </trkpt>
      <trkpt lat="45.4077" lon="6.6603">
        <ele>1730.99</ele>
        <time>2021-12-06T09:20:25Z</time>
      </trkpt>
      <trkpt lat="45.40754" lon="6.6603">
        <ele>1730.99</ele>
        <time>2021-12-06T09:20:44Z</time>
      </trkpt>
      <trkpt lat="45.40744" lon="6.6603">
        <ele>1732.91</ele>
        <time>2021-12-06T09:20:55Z</time>
      </trkpt>
      <trkpt lat="45.40729" lon="6.66026">
        <ele>1732.91</ele>
        <time>2021-12-06T09:21:12Z</time>
      </trkpt>
      <trkpt lat="45.40715" lon="6.6602">
        <ele>1734.36</ele>
        <time>2021-12-06T09:21:30Z</time>
      </trkpt>
      <trkpt lat="45.40701" lon="6.66016">
        <ele>1737.72</ele>
        <time>2021-12-06T09:21:49Z</time>
      </trkpt>
      <trkpt lat="45.40689" lon="6.66009">
        <ele>1740.12</ele>
        <time>2021-12-06T09:22:08Z</time>
      </trkpt>
      <trkpt lat="45.40679" lon="6.66006">
        <ele>1742.05</ele>
        <time>2021-12-06T09:22:24Z</time>
      </trkpt>
      <trkpt lat="45.40672" lon="6.66002">
        <ele>1745.41</ele>
        <time>2021-12-06T09:22:35Z</time>
      </trkpt>
      <trkpt lat="45.40657" lon="6.66">
        <ele>1745.89</ele>
        <time>2021-12-06T09:22:54Z</time>
      </trkpt>
      <trkpt lat="45.40649" lon="6.65999">
        <ele>1749.26</ele>
        <time>2021-12-06T09:23:08Z</time>
      </trkpt>
      <trkpt lat="45.40636" lon="6.6599">
        <ele>1750.7</ele>
        <time>2021-12-06T09:23:27Z</time>
      </trkpt>
      <trkpt lat="45.40629" lon="6.65979">
        <ele>1750.22</ele>
        <time>2021-12-06T09:23:44Z</time>
      </trkpt>
      <trkpt lat="45.40621" lon="6.65968">
        <ele>1753.58</ele>
        <time>2021-12-06T09:23:57Z</time>
      </trkpt>
      <trkpt lat="45.4061" lon="6.65958">
        <ele>1754.06</ele>
        <time>2021-12-06T09:24:16Z</time>
      </trkpt>
      <trkpt lat="45.40598" lon="6.65948">
        <ele>1754.54</ele>
        <time>2021-12-06T09:24:33Z</time>
      </trkpt>
      <trkpt lat="45.40588" lon="6.6594">
        <ele>1757.43</ele>
        <time>2021-12-06T09:24:53Z</time>
      </trkpt>
      <trkpt lat="45.4058" lon="6.65932">
        <ele>1760.79</ele>
        <time>2021-12-06T09:25:09Z</time>
      </trkpt>
      <trkpt lat="45.40573" lon="6.65928">
        <ele>1760.31</ele>
        <time>2021-12-06T09:25:25Z</time>
      </trkpt>
      <trkpt lat="45.40571" lon="6.65926">
        <ele>1763.2</ele>
        <time>2021-12-06T09:25:30Z</time>
      </trkpt>
      <trkpt lat="45.40561" lon="6.6592">
        <ele>1765.6</ele>
        <time>2021-12-06T09:25:46Z</time>
      </trkpt>
      <trkpt lat="45.40554" lon="6.65914">
        <ele>1767.52</ele>
        <time>2021-12-06T09:26:03Z</time>
      </trkpt>
      <trkpt lat="45.40543" lon="6.65906">
        <ele>1770.89</ele>
        <time>2021-12-06T09:26:25Z</time>
      </trkpt>
      <trkpt lat="45.40532" lon="6.65902">
        <ele>1772.33</ele>
        <time>2021-12-06T09:26:45Z</time>
      </trkpt>
      <trkpt lat="45.40521" lon="6.65904">
        <ele>1771.37</ele>
        <time>2021-12-06T09:27:00Z</time>
      </trkpt>
      <trkpt lat="45.40518" lon="6.65904">
        <ele>1772.81</ele>
        <time>2021-12-06T09:27:05Z</time>
      </trkpt>
      <trkpt lat="45.40501" lon="6.65905">
        <ele>1775.69</ele>
        <time>2021-12-06T09:27:31Z</time>
      </trkpt>
      <trkpt lat="45.40488" lon="6.65903">
        <ele>1777.61</ele>
        <time>2021-12-06T09:27:52Z</time>
      </trkpt>
      <trkpt lat="45.40476" lon="6.659">
        <ele>1779.06</ele>
        <time>2021-12-06T09:28:12Z</time>
      </trkpt>
      <trkpt lat="45.4047" lon="6.65899">
        <ele>1782.42</ele>
        <time>2021-12-06T09:28:25Z</time>
      </trkpt>
      <trkpt lat="45.40458" lon="6.65898">
        <ele>1784.34</ele>
        <time>2021-12-06T09:28:46Z</time>
      </trkpt>
      <trkpt lat="45.40452" lon="6.65891">
        <ele>1785.31</ele>
        <time>2021-12-06T09:29:06Z</time>
      </trkpt>
      <trkpt lat="45.40455" lon="6.65876">
        <ele>1789.63</ele>
        <time>2021-12-06T09:29:25Z</time>
      </trkpt>
      <trkpt lat="45.40456" lon="6.65869">
        <ele>1789.63</ele>
        <time>2021-12-06T09:29:48Z</time>
      </trkpt>
      <trkpt lat="45.4046" lon="6.65852">
        <ele>1792.03</ele>
        <time>2021-12-06T09:30:09Z</time>
      </trkpt>
      <trkpt lat="45.40461" lon="6.6584">
        <ele>1794.92</ele>
        <time>2021-12-06T09:30:24Z</time>
      </trkpt>
      <trkpt lat="45.40456" lon="6.65837">
        <ele>1798.28</ele>
        <time>2021-12-06T09:30:43Z</time>
      </trkpt>
      <trkpt lat="45.40445" lon="6.65833">
        <ele>1798.76</ele>
        <time>2021-12-06T09:31:06Z</time>
      </trkpt>
      <trkpt lat="45.40445" lon="6.65833">
        <ele>1798.76</ele>
        <time>2021-12-06T09:31:07Z</time>
      </trkpt>
      <trkpt lat="45.40439" lon="6.65827">
        <ele>1802.13</ele>
        <time>2021-12-06T09:31:19Z</time>
      </trkpt>
      <trkpt lat="45.40441" lon="6.65814">
        <ele>1802.61</ele>
        <time>2021-12-06T09:31:38Z</time>
      </trkpt>
      <trkpt lat="45.40446" lon="6.65802">
        <ele>1805.49</ele>
        <time>2021-12-06T09:31:56Z</time>
      </trkpt>
      <trkpt lat="45.4045" lon="6.65802">
        <ele>1805.97</ele>
        <time>2021-12-06T09:32:17Z</time>
      </trkpt>
      <trkpt lat="45.40451" lon="6.65799">
        <ele>1805.97</ele>
        <time>2021-12-06T09:32:46Z</time>
      </trkpt>
      <trkpt lat="45.40448" lon="6.65803">
        <ele>1805.97</ele>
        <time>2021-12-06T09:33:16Z</time>
      </trkpt>
      <trkpt lat="45.40449" lon="6.65803">
        <ele>1805.97</ele>
        <time>2021-12-06T09:33:48Z</time>
      </trkpt>
      <trkpt lat="45.40451" lon="6.65804">
        <ele>1805.97</ele>
        <time>2021-12-06T09:34:09Z</time>
      </trkpt>
      <trkpt lat="45.40448" lon="6.65802">
        <ele>1806.45</ele>
        <time>2021-12-06T09:34:35Z</time>
      </trkpt>
      <trkpt lat="45.40448" lon="6.65804">
        <ele>1805.97</ele>
        <time>2021-12-06T09:35:02Z</time>
      </trkpt>
      <trkpt lat="45.40449" lon="6.658">
        <ele>1805.97</ele>
        <time>2021-12-06T09:35:28Z</time>
      </trkpt>
      <trkpt lat="45.40449" lon="6.65802">
        <ele>1806.45</ele>
        <time>2021-12-06T09:35:56Z</time>
      </trkpt>
      <trkpt lat="45.4045" lon="6.65803">
        <ele>1805.49</ele>
        <time>2021-12-06T09:36:34Z</time>
      </trkpt>
      <trkpt lat="45.40448" lon="6.65803">
        <ele>1805.97</ele>
        <time>2021-12-06T09:37:04Z</time>
      </trkpt>
      <trkpt lat="45.40449" lon="6.65803">
        <ele>1805.49</ele>
        <time>2021-12-06T09:37:35Z</time>
      </trkpt>
      <trkpt lat="45.40454" lon="6.65795">
        <ele>1808.86</ele>
        <time>2021-12-06T09:37:53Z</time>
      </trkpt>
      <trkpt lat="45.40461" lon="6.6578">
        <ele>1811.74</ele>
        <time>2021-12-06T09:38:13Z</time>
      </trkpt>
      <trkpt lat="45.40465" lon="6.65762">
        <ele>1814.63</ele>
        <time>2021-12-06T09:38:34Z</time>
      </trkpt>
      <trkpt lat="45.40468" lon="6.65747">
        <ele>1817.03</ele>
        <time>2021-12-06T09:38:53Z</time>
      </trkpt>
      <trkpt lat="45.40463" lon="6.65742">
        <ele>1819.43</ele>
        <time>2021-12-06T09:39:09Z</time>
      </trkpt>
      <trkpt lat="45.40463" lon="6.65742">
        <ele>1819.43</ele>
        <time>2021-12-06T09:39:10Z</time>
      </trkpt>
      <trkpt lat="45.40453" lon="6.65736">
        <ele>1822.32</ele>
        <time>2021-12-06T09:39:31Z</time>
      </trkpt>
      <trkpt lat="45.40444" lon="6.65731">
        <ele>1822.32</ele>
        <time>2021-12-06T09:39:49Z</time>
      </trkpt>
      <trkpt lat="45.40439" lon="6.65728">
        <ele>1825.68</ele>
        <time>2021-12-06T09:39:59Z</time>
      </trkpt>
      <trkpt lat="45.40427" lon="6.65728">
        <ele>1825.68</ele>
        <time>2021-12-06T09:40:19Z</time>
      </trkpt>
      <trkpt lat="45.40422" lon="6.65726">
        <ele>1829.05</ele>
        <time>2021-12-06T09:40:28Z</time>
      </trkpt>
      <trkpt lat="45.40412" lon="6.65725">
        <ele>1832.41</ele>
        <time>2021-12-06T09:40:48Z</time>
      </trkpt>
      <trkpt lat="45.40399" lon="6.65722">
        <ele>1834.33</ele>
        <time>2021-12-06T09:41:11Z</time>
      </trkpt>
      <trkpt lat="45.40386" lon="6.65721">
        <ele>1835.77</ele>
        <time>2021-12-06T09:41:32Z</time>
      </trkpt>
      <trkpt lat="45.40373" lon="6.65718">
        <ele>1836.26</ele>
        <time>2021-12-06T09:41:52Z</time>
      </trkpt>
      <trkpt lat="45.40367" lon="6.65706">
        <ele>1839.62</ele>
        <time>2021-12-06T09:42:08Z</time>
      </trkpt>
      <trkpt lat="45.40361" lon="6.657">
        <ele>1841.54</ele>
        <time>2021-12-06T09:42:26Z</time>
      </trkpt>
      <trkpt lat="45.40358" lon="6.65697">
        <ele>1844.91</ele>
        <time>2021-12-06T09:42:35Z</time>
      </trkpt>
      <trkpt lat="45.40347" lon="6.65692">
        <ele>1844.91</ele>
        <time>2021-12-06T09:42:56Z</time>
      </trkpt>
      <trkpt lat="45.4034" lon="6.6569">
        <ele>1848.75</ele>
        <time>2021-12-06T09:43:12Z</time>
      </trkpt>
      <trkpt lat="45.40328" lon="6.65691">
        <ele>1848.75</ele>
        <time>2021-12-06T09:43:33Z</time>
      </trkpt>
      <trkpt lat="45.40328" lon="6.65678">
        <ele>1851.64</ele>
        <time>2021-12-06T09:43:52Z</time>
      </trkpt>
      <trkpt lat="45.40331" lon="6.65668">
        <ele>1853.08</ele>
        <time>2021-12-06T09:44:10Z</time>
      </trkpt>
      <trkpt lat="45.40333" lon="6.65651">
        <ele>1852.12</ele>
        <time>2021-12-06T09:44:28Z</time>
      </trkpt>
      <trkpt lat="45.40328" lon="6.6565">
        <ele>1855.48</ele>
        <time>2021-12-06T09:44:39Z</time>
      </trkpt>
      <trkpt lat="45.40317" lon="6.65647">
        <ele>1855.48</ele>
        <time>2021-12-06T09:45:00Z</time>
      </trkpt>
      <trkpt lat="45.40314" lon="6.65643">
        <ele>1858.85</ele>
        <time>2021-12-06T09:45:09Z</time>
      </trkpt>
      <trkpt lat="45.40314" lon="6.65642">
        <ele>1858.85</ele>
        <time>2021-12-06T09:45:10Z</time>
      </trkpt>
      <trkpt lat="45.40314" lon="6.65639">
        <ele>1857.4</ele>
        <time>2021-12-06T09:45:12Z</time>
      </trkpt>
      <trkpt lat="45.40303" lon="6.65627">
        <ele>1859.33</ele>
        <time>2021-12-06T09:45:33Z</time>
      </trkpt>
      <trkpt lat="45.40293" lon="6.65618">
        <ele>1860.29</ele>
        <time>2021-12-06T09:45:52Z</time>
      </trkpt>
      <trkpt lat="45.40282" lon="6.65612">
        <ele>1862.69</ele>
        <time>2021-12-06T09:46:14Z</time>
      </trkpt>
      <trkpt lat="45.40274" lon="6.65607">
        <ele>1865.58</ele>
        <time>2021-12-06T09:46:32Z</time>
      </trkpt>
      <trkpt lat="45.40267" lon="6.65606">
        <ele>1867.02</ele>
        <time>2021-12-06T09:46:43Z</time>
      </trkpt>
      <trkpt lat="45.40255" lon="6.65601">
        <ele>1869.42</ele>
        <time>2021-12-06T09:47:03Z</time>
      </trkpt>
      <trkpt lat="45.40245" lon="6.65599">
        <ele>1870.38</ele>
        <time>2021-12-06T09:47:22Z</time>
      </trkpt>
      <trkpt lat="45.40237" lon="6.65598">
        <ele>1873.75</ele>
        <time>2021-12-06T09:47:41Z</time>
      </trkpt>
      <trkpt lat="45.40229" lon="6.65596">
        <ele>1876.63</ele>
        <time>2021-12-06T09:48:01Z</time>
      </trkpt>
      <trkpt lat="45.40227" lon="6.65586">
        <ele>1875.67</ele>
        <time>2021-12-06T09:48:17Z</time>
      </trkpt>
      <trkpt lat="45.40232" lon="6.65577">
        <ele>1878.55</ele>
        <time>2021-12-06T09:48:35Z</time>
      </trkpt>
      <trkpt lat="45.40239" lon="6.65563">
        <ele>1880</ele>
        <time>2021-12-06T09:48:56Z</time>
      </trkpt>
      <trkpt lat="45.40245" lon="6.65551">
        <ele>1881.92</ele>
        <time>2021-12-06T09:49:14Z</time>
      </trkpt>
      <trkpt lat="45.40248" lon="6.65541">
        <ele>1884.32</ele>
        <time>2021-12-06T09:49:31Z</time>
      </trkpt>
      <trkpt lat="45.40235" lon="6.65549">
        <ele>1884.8</ele>
        <time>2021-12-06T09:49:52Z</time>
      </trkpt>
      <trkpt lat="45.40233" lon="6.65551">
        <ele>1884.8</ele>
        <time>2021-12-06T09:50:12Z</time>
      </trkpt>
      <trkpt lat="45.40234" lon="6.65551">
        <ele>1884.8</ele>
        <time>2021-12-06T09:50:45Z</time>
      </trkpt>
      <trkpt lat="45.40233" lon="6.65553">
        <ele>1884.32</ele>
        <time>2021-12-06T09:51:17Z</time>
      </trkpt>
      <trkpt lat="45.40234" lon="6.65551">
        <ele>1884.32</ele>
        <time>2021-12-06T09:51:50Z</time>
      </trkpt>
      <trkpt lat="45.40233" lon="6.65545">
        <ele>1883.84</ele>
        <time>2021-12-06T09:52:16Z</time>
      </trkpt>
      <trkpt lat="45.40231" lon="6.65545">
        <ele>1884.32</ele>
        <time>2021-12-06T09:52:43Z</time>
      </trkpt>
      <trkpt lat="45.40232" lon="6.65548">
        <ele>1884.32</ele>
        <time>2021-12-06T09:53:09Z</time>
      </trkpt>
      <trkpt lat="45.40232" lon="6.65545">
        <ele>1883.84</ele>
        <time>2021-12-06T09:53:41Z</time>
      </trkpt>
      <trkpt lat="45.40233" lon="6.65546">
        <ele>1883.84</ele>
        <time>2021-12-06T09:54:09Z</time>
      </trkpt>
      <trkpt lat="45.40233" lon="6.65545">
        <ele>1883.84</ele>
        <time>2021-12-06T09:54:47Z</time>
      </trkpt>
      <trkpt lat="45.4023" lon="6.65546">
        <ele>1883.36</ele>
        <time>2021-12-06T09:55:13Z</time>
      </trkpt>
      <trkpt lat="45.40221" lon="6.65549">
        <ele>1884.32</ele>
        <time>2021-12-06T09:55:32Z</time>
      </trkpt>
      <trkpt lat="45.40205" lon="6.65553">
        <ele>1886.24</ele>
        <time>2021-12-06T09:55:52Z</time>
      </trkpt>
      <trkpt lat="45.40193" lon="6.65556">
        <ele>1888.17</ele>
        <time>2021-12-06T09:56:10Z</time>
      </trkpt>
      <trkpt lat="45.40178" lon="6.65558">
        <ele>1889.61</ele>
        <time>2021-12-06T09:56:29Z</time>
      </trkpt>
      <trkpt lat="45.4016" lon="6.65562">
        <ele>1891.05</ele>
        <time>2021-12-06T09:56:50Z</time>
      </trkpt>
      <trkpt lat="45.40156" lon="6.65562">
        <ele>1892.01</ele>
        <time>2021-12-06T09:56:54Z</time>
      </trkpt>
      <trkpt lat="45.40142" lon="6.65566">
        <ele>1893.93</ele>
        <time>2021-12-06T09:57:13Z</time>
      </trkpt>
      <trkpt lat="45.40127" lon="6.65576">
        <ele>1892.97</ele>
        <time>2021-12-06T09:57:31Z</time>
      </trkpt>
      <trkpt lat="45.40123" lon="6.6558">
        <ele>1892.97</ele>
        <time>2021-12-06T09:57:41Z</time>
      </trkpt>
      <trkpt lat="45.4012" lon="6.65581">
        <ele>1896.82</ele>
        <time>2021-12-06T09:57:49Z</time>
      </trkpt>
      <trkpt lat="45.40113" lon="6.65562">
        <ele>1897.3</ele>
        <time>2021-12-06T09:58:09Z</time>
      </trkpt>
      <trkpt lat="45.40111" lon="6.65557">
        <ele>1897.78</ele>
        <time>2021-12-06T09:58:14Z</time>
      </trkpt>
      <trkpt lat="45.40102" lon="6.65544">
        <ele>1897.3</ele>
        <time>2021-12-06T09:58:30Z</time>
      </trkpt>
      <trkpt lat="45.40092" lon="6.6553">
        <ele>1898.74</ele>
        <time>2021-12-06T09:58:46Z</time>
      </trkpt>
      <trkpt lat="45.40082" lon="6.65517">
        <ele>1897.3</ele>
        <time>2021-12-06T09:59:03Z</time>
      </trkpt>
      <trkpt lat="45.40069" lon="6.65505">
        <ele>1895.86</ele>
        <time>2021-12-06T09:59:20Z</time>
      </trkpt>
      <trkpt lat="45.40056" lon="6.65492">
        <ele>1895.86</ele>
        <time>2021-12-06T09:59:36Z</time>
      </trkpt>
      <trkpt lat="45.40044" lon="6.65479">
        <ele>1895.38</ele>
        <time>2021-12-06T09:59:54Z</time>
      </trkpt>
      <trkpt lat="45.40031" lon="6.65464">
        <ele>1895.86</ele>
        <time>2021-12-06T10:00:11Z</time>
      </trkpt>
      <trkpt lat="45.40018" lon="6.65447">
        <ele>1895.38</ele>
        <time>2021-12-06T10:00:29Z</time>
      </trkpt>
      <trkpt lat="45.40008" lon="6.65436">
        <ele>1896.82</ele>
        <time>2021-12-06T10:00:45Z</time>
      </trkpt>
      <trkpt lat="45.39997" lon="6.65425">
        <ele>1896.34</ele>
        <time>2021-12-06T10:01:00Z</time>
      </trkpt>
      <trkpt lat="45.39984" lon="6.65411">
        <ele>1897.3</ele>
        <time>2021-12-06T10:01:18Z</time>
      </trkpt>
      <trkpt lat="45.39972" lon="6.65397">
        <ele>1897.78</ele>
        <time>2021-12-06T10:01:35Z</time>
      </trkpt>
      <trkpt lat="45.39963" lon="6.6538">
        <ele>1898.26</ele>
        <time>2021-12-06T10:01:52Z</time>
      </trkpt>
      <trkpt lat="45.39953" lon="6.65364">
        <ele>1899.7</ele>
        <time>2021-12-06T10:02:08Z</time>
      </trkpt>
      <trkpt lat="45.39942" lon="6.65347">
        <ele>1900.18</ele>
        <time>2021-12-06T10:02:26Z</time>
      </trkpt>
      <trkpt lat="45.39935" lon="6.65336">
        <ele>1903.55</ele>
        <time>2021-12-06T10:02:41Z</time>
      </trkpt>
      <trkpt lat="45.39926" lon="6.65325">
        <ele>1904.51</ele>
        <time>2021-12-06T10:02:59Z</time>
      </trkpt>
      <trkpt lat="45.39917" lon="6.65311">
        <ele>1906.43</ele>
        <time>2021-12-06T10:03:18Z</time>
      </trkpt>
      <trkpt lat="45.39914" lon="6.65307">
        <ele>1906.43</ele>
        <time>2021-12-06T10:03:37Z</time>
      </trkpt>
      <trkpt lat="45.39915" lon="6.65307">
        <ele>1906.43</ele>
        <time>2021-12-06T10:04:02Z</time>
      </trkpt>
      <trkpt lat="45.39915" lon="6.65305">
        <ele>1906.43</ele>
        <time>2021-12-06T10:04:31Z</time>
      </trkpt>
      <trkpt lat="45.39915" lon="6.65306">
        <ele>1906.91</ele>
        <time>2021-12-06T10:05:05Z</time>
      </trkpt>
      <trkpt lat="45.39914" lon="6.65308">
        <ele>1906.43</ele>
        <time>2021-12-06T10:05:47Z</time>
      </trkpt>
      <trkpt lat="45.39915" lon="6.65305">
        <ele>1905.95</ele>
        <time>2021-12-06T10:06:12Z</time>
      </trkpt>
      <trkpt lat="45.39911" lon="6.65297">
        <ele>1906.91</ele>
        <time>2021-12-06T10:06:39Z</time>
      </trkpt>
      <trkpt lat="45.39903" lon="6.65286">
        <ele>1909.32</ele>
        <time>2021-12-06T10:06:56Z</time>
      </trkpt>
      <trkpt lat="45.39895" lon="6.65271">
        <ele>1911.72</ele>
        <time>2021-12-06T10:07:15Z</time>
      </trkpt>
      <trkpt lat="45.39888" lon="6.65259">
        <ele>1914.6</ele>
        <time>2021-12-06T10:07:31Z</time>
      </trkpt>
      <trkpt lat="45.3988" lon="6.65246">
        <ele>1915.56</ele>
        <time>2021-12-06T10:07:47Z</time>
      </trkpt>
      <trkpt lat="45.39871" lon="6.65232">
        <ele>1917.01</ele>
        <time>2021-12-06T10:08:02Z</time>
      </trkpt>
      <trkpt lat="45.39862" lon="6.65222">
        <ele>1917.49</ele>
        <time>2021-12-06T10:08:20Z</time>
      </trkpt>
      <trkpt lat="45.39856" lon="6.65217">
        <ele>1920.85</ele>
        <time>2021-12-06T10:08:30Z</time>
      </trkpt>
      <trkpt lat="45.39844" lon="6.65198">
        <ele>1921.33</ele>
        <time>2021-12-06T10:08:52Z</time>
      </trkpt>
      <trkpt lat="45.39839" lon="6.65185">
        <ele>1924.7</ele>
        <time>2021-12-06T10:09:08Z</time>
      </trkpt>
      <trkpt lat="45.39829" lon="6.65189">
        <ele>1925.66</ele>
        <time>2021-12-06T10:09:25Z</time>
      </trkpt>
      <trkpt lat="45.39818" lon="6.6519">
        <ele>1929.02</ele>
        <time>2021-12-06T10:09:42Z</time>
      </trkpt>
      <trkpt lat="45.39809" lon="6.65175">
        <ele>1931.43</ele>
        <time>2021-12-06T10:10:02Z</time>
      </trkpt>
      <trkpt lat="45.39797" lon="6.65161">
        <ele>1931.91</ele>
        <time>2021-12-06T10:10:22Z</time>
      </trkpt>
      <trkpt lat="45.39788" lon="6.65151">
        <ele>1934.79</ele>
        <time>2021-12-06T10:10:38Z</time>
      </trkpt>
      <trkpt lat="45.39779" lon="6.65159">
        <ele>1937.19</ele>
        <time>2021-12-06T10:10:55Z</time>
      </trkpt>
      <trkpt lat="45.39766" lon="6.65166">
        <ele>1938.64</ele>
        <time>2021-12-06T10:11:13Z</time>
      </trkpt>
      <trkpt lat="45.39757" lon="6.6516">
        <ele>1940.08</ele>
        <time>2021-12-06T10:11:32Z</time>
      </trkpt>
      <trkpt lat="45.39755" lon="6.65147">
        <ele>1943.44</ele>
        <time>2021-12-06T10:11:44Z</time>
      </trkpt>
      <trkpt lat="45.39748" lon="6.65146">
        <ele>1944.88</ele>
        <time>2021-12-06T10:12:03Z</time>
      </trkpt>
      <trkpt lat="45.39737" lon="6.65149">
        <ele>1946.81</ele>
        <time>2021-12-06T10:12:22Z</time>
      </trkpt>
      <trkpt lat="45.39733" lon="6.65139">
        <ele>1949.69</ele>
        <time>2021-12-06T10:12:37Z</time>
      </trkpt>
      <trkpt lat="45.3973" lon="6.65126">
        <ele>1951.61</ele>
        <time>2021-12-06T10:12:54Z</time>
      </trkpt>
      <trkpt lat="45.39719" lon="6.65122">
        <ele>1954.02</ele>
        <time>2021-12-06T10:13:15Z</time>
      </trkpt>
      <trkpt lat="45.39704" lon="6.65125">
        <ele>1954.98</ele>
        <time>2021-12-06T10:13:35Z</time>
      </trkpt>
      <trkpt lat="45.39694" lon="6.65125">
        <ele>1957.86</ele>
        <time>2021-12-06T10:13:50Z</time>
      </trkpt>
      <trkpt lat="45.39691" lon="6.65105">
        <ele>1959.78</ele>
        <time>2021-12-06T10:14:08Z</time>
      </trkpt>
      <trkpt lat="45.39681" lon="6.65107">
        <ele>1962.19</ele>
        <time>2021-12-06T10:14:28Z</time>
      </trkpt>
      <trkpt lat="45.39668" lon="6.65104">
        <ele>1964.59</ele>
        <time>2021-12-06T10:14:50Z</time>
      </trkpt>
      <trkpt lat="45.39653" lon="6.65097">
        <ele>1967.96</ele>
        <time>2021-12-06T10:15:10Z</time>
      </trkpt>
      <trkpt lat="45.39642" lon="6.65084">
        <ele>1966.99</ele>
        <time>2021-12-06T10:15:28Z</time>
      </trkpt>
      <trkpt lat="45.39636" lon="6.6508">
        <ele>1970.36</ele>
        <time>2021-12-06T10:15:45Z</time>
      </trkpt>
      <trkpt lat="45.39628" lon="6.65088">
        <ele>1973.72</ele>
        <time>2021-12-06T10:16:05Z</time>
      </trkpt>
      <trkpt lat="45.39619" lon="6.65074">
        <ele>1974.69</ele>
        <time>2021-12-06T10:16:22Z</time>
      </trkpt>
      <trkpt lat="45.39612" lon="6.65065">
        <ele>1975.17</ele>
        <time>2021-12-06T10:16:43Z</time>
      </trkpt>
      <trkpt lat="45.39609" lon="6.65064">
        <ele>1978.53</ele>
        <time>2021-12-06T10:16:55Z</time>
      </trkpt>
      <trkpt lat="45.396" lon="6.65077">
        <ele>1979.49</ele>
        <time>2021-12-06T10:17:14Z</time>
      </trkpt>
      <trkpt lat="45.39593" lon="6.65072">
        <ele>1982.38</ele>
        <time>2021-12-06T10:17:28Z</time>
      </trkpt>
      <trkpt lat="45.39584" lon="6.65057">
        <ele>1984.3</ele>
        <time>2021-12-06T10:17:50Z</time>
      </trkpt>
      <trkpt lat="45.39571" lon="6.65055">
        <ele>1984.78</ele>
        <time>2021-12-06T10:18:10Z</time>
      </trkpt>
      <trkpt lat="45.39558" lon="6.65061">
        <ele>1985.74</ele>
        <time>2021-12-06T10:18:29Z</time>
      </trkpt>
      <trkpt lat="45.39547" lon="6.65065">
        <ele>1989.1</ele>
        <time>2021-12-06T10:18:46Z</time>
      </trkpt>
      <trkpt lat="45.39536" lon="6.6506">
        <ele>1990.07</ele>
        <time>2021-12-06T10:19:05Z</time>
      </trkpt>
      <trkpt lat="45.39529" lon="6.65056">
        <ele>1993.43</ele>
        <time>2021-12-06T10:19:18Z</time>
      </trkpt>
      <trkpt lat="45.39522" lon="6.65049">
        <ele>1993.43</ele>
        <time>2021-12-06T10:19:33Z</time>
      </trkpt>
      <trkpt lat="45.39521" lon="6.65047">
        <ele>1993.91</ele>
        <time>2021-12-06T10:19:56Z</time>
      </trkpt>
      <trkpt lat="45.39521" lon="6.65042">
        <ele>1993.43</ele>
        <time>2021-12-06T10:20:30Z</time>
      </trkpt>
      <trkpt lat="45.39522" lon="6.65037">
        <ele>1993.43</ele>
        <time>2021-12-06T10:20:58Z</time>
      </trkpt>
      <trkpt lat="45.39523" lon="6.65039">
        <ele>1993.43</ele>
        <time>2021-12-06T10:21:28Z</time>
      </trkpt>
      <trkpt lat="45.39524" lon="6.65041">
        <ele>1992.95</ele>
        <time>2021-12-06T10:21:56Z</time>
      </trkpt>
      <trkpt lat="45.39523" lon="6.65047">
        <ele>1992.47</ele>
        <time>2021-12-06T10:22:26Z</time>
      </trkpt>
      <trkpt lat="45.39525" lon="6.65049">
        <ele>1992.47</ele>
        <time>2021-12-06T10:22:48Z</time>
      </trkpt>
      <trkpt lat="45.39528" lon="6.65047">
        <ele>1992.47</ele>
        <time>2021-12-06T10:23:12Z</time>
      </trkpt>
      <trkpt lat="45.39527" lon="6.65044">
        <ele>1991.99</ele>
        <time>2021-12-06T10:23:29Z</time>
      </trkpt>
      <trkpt lat="45.39526" lon="6.65043">
        <ele>1991.51</ele>
        <time>2021-12-06T10:23:57Z</time>
      </trkpt>
      <trkpt lat="45.39526" lon="6.65044">
        <ele>1991.51</ele>
        <time>2021-12-06T10:24:28Z</time>
      </trkpt>
      <trkpt lat="45.39526" lon="6.65046">
        <ele>1991.51</ele>
        <time>2021-12-06T10:24:54Z</time>
      </trkpt>
      <trkpt lat="45.39526" lon="6.65046">
        <ele>1991.03</ele>
        <time>2021-12-06T10:25:17Z</time>
      </trkpt>
      <trkpt lat="45.39527" lon="6.65046">
        <ele>1991.03</ele>
        <time>2021-12-06T10:25:45Z</time>
      </trkpt>
      <trkpt lat="45.39526" lon="6.65047">
        <ele>1991.03</ele>
        <time>2021-12-06T10:26:12Z</time>
      </trkpt>
      <trkpt lat="45.39525" lon="6.65048">
        <ele>1991.03</ele>
        <time>2021-12-06T10:26:41Z</time>
      </trkpt>
      <trkpt lat="45.39525" lon="6.65046">
        <ele>1990.55</ele>
        <time>2021-12-06T10:27:10Z</time>
      </trkpt>
      <trkpt lat="45.39522" lon="6.65045">
        <ele>1991.51</ele>
        <time>2021-12-06T10:27:38Z</time>
      </trkpt>
      <trkpt lat="45.39516" lon="6.65041">
        <ele>1992.47</ele>
        <time>2021-12-06T10:27:54Z</time>
      </trkpt>
      <trkpt lat="45.39509" lon="6.65031">
        <ele>1993.43</ele>
        <time>2021-12-06T10:28:14Z</time>
      </trkpt>
      <trkpt lat="45.39502" lon="6.65023">
        <ele>1993.91</ele>
        <time>2021-12-06T10:28:31Z</time>
      </trkpt>
      <trkpt lat="45.39494" lon="6.65022">
        <ele>1995.83</ele>
        <time>2021-12-06T10:28:51Z</time>
      </trkpt>
      <trkpt lat="45.39488" lon="6.65031">
        <ele>1999.2</ele>
        <time>2021-12-06T10:29:09Z</time>
      </trkpt>
      <trkpt lat="45.39481" lon="6.65041">
        <ele>2000.16</ele>
        <time>2021-12-06T10:29:28Z</time>
      </trkpt>
      <trkpt lat="45.39473" lon="6.65048">
        <ele>2002.56</ele>
        <time>2021-12-06T10:29:45Z</time>
      </trkpt>
      <trkpt lat="45.39463" lon="6.65033">
        <ele>2003.04</ele>
        <time>2021-12-06T10:30:04Z</time>
      </trkpt>
      <trkpt lat="45.39454" lon="6.65019">
        <ele>2004.97</ele>
        <time>2021-12-06T10:30:25Z</time>
      </trkpt>
      <trkpt lat="45.39446" lon="6.65023">
        <ele>2006.41</ele>
        <time>2021-12-06T10:30:41Z</time>
      </trkpt>
      <trkpt lat="45.39442" lon="6.65035">
        <ele>2007.85</ele>
        <time>2021-12-06T10:30:58Z</time>
      </trkpt>
      <trkpt lat="45.39438" lon="6.65043">
        <ele>2010.73</ele>
        <time>2021-12-06T10:31:13Z</time>
      </trkpt>
      <trkpt lat="45.39434" lon="6.65038">
        <ele>2010.25</ele>
        <time>2021-12-06T10:31:18Z</time>
      </trkpt>
      <trkpt lat="45.39426" lon="6.65026">
        <ele>2012.18</ele>
        <time>2021-12-06T10:31:36Z</time>
      </trkpt>
      <trkpt lat="45.39421" lon="6.65033">
        <ele>2012.66</ele>
        <time>2021-12-06T10:31:53Z</time>
      </trkpt>
      <trkpt lat="45.39412" lon="6.65029">
        <ele>2014.58</ele>
        <time>2021-12-06T10:32:11Z</time>
      </trkpt>
      <trkpt lat="45.39408" lon="6.6502">
        <ele>2016.02</ele>
        <time>2021-12-06T10:32:31Z</time>
      </trkpt>
      <trkpt lat="45.39407" lon="6.65009">
        <ele>2017.46</ele>
        <time>2021-12-06T10:32:49Z</time>
      </trkpt>
      <trkpt lat="45.39407" lon="6.64997">
        <ele>2018.43</ele>
        <time>2021-12-06T10:33:05Z</time>
      </trkpt>
      <trkpt lat="45.39408" lon="6.64984">
        <ele>2020.83</ele>
        <time>2021-12-06T10:33:25Z</time>
      </trkpt>
      <trkpt lat="45.3941" lon="6.64973">
        <ele>2020.83</ele>
        <time>2021-12-06T10:33:48Z</time>
      </trkpt>
      <trkpt lat="45.39404" lon="6.64962">
        <ele>2022.75</ele>
        <time>2021-12-06T10:34:09Z</time>
      </trkpt>
      <trkpt lat="45.39397" lon="6.64967">
        <ele>2026.12</ele>
        <time>2021-12-06T10:34:21Z</time>
      </trkpt>
      <trkpt lat="45.39386" lon="6.64975">
        <ele>2028.52</ele>
        <time>2021-12-06T10:34:46Z</time>
      </trkpt>
      <trkpt lat="45.39376" lon="6.64982">
        <ele>2029.96</ele>
        <time>2021-12-06T10:35:08Z</time>
      </trkpt>
      <trkpt lat="45.39369" lon="6.64989">
        <ele>2031.88</ele>
        <time>2021-12-06T10:35:27Z</time>
      </trkpt>
      <trkpt lat="45.39362" lon="6.65">
        <ele>2034.29</ele>
        <time>2021-12-06T10:35:50Z</time>
      </trkpt>
      <trkpt lat="45.39355" lon="6.65009">
        <ele>2037.17</ele>
        <time>2021-12-06T10:36:10Z</time>
      </trkpt>
      <trkpt lat="45.39347" lon="6.6502">
        <ele>2039.57</ele>
        <time>2021-12-06T10:36:32Z</time>
      </trkpt>
      <trkpt lat="45.39342" lon="6.65027">
        <ele>2041.02</ele>
        <time>2021-12-06T10:36:50Z</time>
      </trkpt>
      <trkpt lat="45.39334" lon="6.65037">
        <ele>2043.9</ele>
        <time>2021-12-06T10:37:09Z</time>
      </trkpt>
      <trkpt lat="45.39326" lon="6.65046">
        <ele>2045.34</ele>
        <time>2021-12-06T10:37:30Z</time>
      </trkpt>
      <trkpt lat="45.39319" lon="6.65058">
        <ele>2047.75</ele>
        <time>2021-12-06T10:37:51Z</time>
      </trkpt>
      <trkpt lat="45.3931" lon="6.65074">
        <ele>2049.19</ele>
        <time>2021-12-06T10:38:12Z</time>
      </trkpt>
      <trkpt lat="45.39306" lon="6.65088">
        <ele>2051.11</ele>
        <time>2021-12-06T10:38:30Z</time>
      </trkpt>
      <trkpt lat="45.3929" lon="6.65083">
        <ele>2053.03</ele>
        <time>2021-12-06T10:38:50Z</time>
      </trkpt>
      <trkpt lat="45.39277" lon="6.6508">
        <ele>2055.92</ele>
        <time>2021-12-06T10:39:14Z</time>
      </trkpt>
      <trkpt lat="45.39278" lon="6.65094">
        <ele>2058.32</ele>
        <time>2021-12-06T10:39:35Z</time>
      </trkpt>
      <trkpt lat="45.39274" lon="6.65105">
        <ele>2060.24</ele>
        <time>2021-12-06T10:39:54Z</time>
      </trkpt>
      <trkpt lat="45.39261" lon="6.65105">
        <ele>2062.17</ele>
        <time>2021-12-06T10:40:13Z</time>
      </trkpt>
      <trkpt lat="45.3925" lon="6.65109">
        <ele>2064.57</ele>
        <time>2021-12-06T10:40:34Z</time>
      </trkpt>
      <trkpt lat="45.39244" lon="6.6511">
        <ele>2067.45</ele>
        <time>2021-12-06T10:40:54Z</time>
      </trkpt>
      <trkpt lat="45.39247" lon="6.65124">
        <ele>2068.89</ele>
        <time>2021-12-06T10:41:11Z</time>
      </trkpt>
      <trkpt lat="45.39245" lon="6.65133">
        <ele>2070.34</ele>
        <time>2021-12-06T10:41:28Z</time>
      </trkpt>
      <trkpt lat="45.39232" lon="6.65131">
        <ele>2071.3</ele>
        <time>2021-12-06T10:41:45Z</time>
      </trkpt>
      <trkpt lat="45.39223" lon="6.65131">
        <ele>2073.7</ele>
        <time>2021-12-06T10:42:08Z</time>
      </trkpt>
      <trkpt lat="45.39225" lon="6.65139">
        <ele>2075.62</ele>
        <time>2021-12-06T10:42:24Z</time>
      </trkpt>
      <trkpt lat="45.39225" lon="6.65153">
        <ele>2077.55</ele>
        <time>2021-12-06T10:42:42Z</time>
      </trkpt>
      <trkpt lat="45.39209" lon="6.65153">
        <ele>2078.99</ele>
        <time>2021-12-06T10:43:00Z</time>
      </trkpt>
      <trkpt lat="45.39196" lon="6.65156">
        <ele>2081.39</ele>
        <time>2021-12-06T10:43:21Z</time>
      </trkpt>
      <trkpt lat="45.39182" lon="6.65159">
        <ele>2082.83</ele>
        <time>2021-12-06T10:43:41Z</time>
      </trkpt>
      <trkpt lat="45.39167" lon="6.65163">
        <ele>2084.28</ele>
        <time>2021-12-06T10:44:03Z</time>
      </trkpt>
      <trkpt lat="45.39155" lon="6.65173">
        <ele>2085.72</ele>
        <time>2021-12-06T10:44:23Z</time>
      </trkpt>
      <trkpt lat="45.39153" lon="6.65186">
        <ele>2087.16</ele>
        <time>2021-12-06T10:44:39Z</time>
      </trkpt>
      <trkpt lat="45.39158" lon="6.65198">
        <ele>2089.08</ele>
        <time>2021-12-06T10:44:56Z</time>
      </trkpt>
      <trkpt lat="45.39153" lon="6.65216">
        <ele>2090.52</ele>
        <time>2021-12-06T10:45:15Z</time>
      </trkpt>
      <trkpt lat="45.39147" lon="6.65218">
        <ele>2091</ele>
        <time>2021-12-06T10:45:21Z</time>
      </trkpt>
      <trkpt lat="45.39133" lon="6.6523">
        <ele>2091.97</ele>
        <time>2021-12-06T10:45:41Z</time>
      </trkpt>
      <trkpt lat="45.39122" lon="6.6524">
        <ele>2093.89</ele>
        <time>2021-12-06T10:46:02Z</time>
      </trkpt>
      <trkpt lat="45.39109" lon="6.65249">
        <ele>2096.77</ele>
        <time>2021-12-06T10:46:22Z</time>
      </trkpt>
      <trkpt lat="45.391" lon="6.65256">
        <ele>2097.25</ele>
        <time>2021-12-06T10:46:39Z</time>
      </trkpt>
      <trkpt lat="45.39095" lon="6.65259">
        <ele>2098.7</ele>
        <time>2021-12-06T10:46:58Z</time>
      </trkpt>
      <trkpt lat="45.39092" lon="6.65261">
        <ele>2098.7</ele>
        <time>2021-12-06T10:47:24Z</time>
      </trkpt>
      <trkpt lat="45.39093" lon="6.6526">
        <ele>2098.7</ele>
        <time>2021-12-06T10:47:50Z</time>
      </trkpt>
      <trkpt lat="45.39091" lon="6.65261">
        <ele>2098.21</ele>
        <time>2021-12-06T10:48:13Z</time>
      </trkpt>
      <trkpt lat="45.3909" lon="6.65261">
        <ele>2098.21</ele>
        <time>2021-12-06T10:48:42Z</time>
      </trkpt>
      <trkpt lat="45.39091" lon="6.65264">
        <ele>2098.21</ele>
        <time>2021-12-06T10:49:06Z</time>
      </trkpt>
      <trkpt lat="45.39088" lon="6.65264">
        <ele>2098.7</ele>
        <time>2021-12-06T10:49:37Z</time>
      </trkpt>
      <trkpt lat="45.39089" lon="6.65265">
        <ele>2098.21</ele>
        <time>2021-12-06T10:50:06Z</time>
      </trkpt>
      <trkpt lat="45.39088" lon="6.65263">
        <ele>2098.21</ele>
        <time>2021-12-06T10:50:41Z</time>
      </trkpt>
      <trkpt lat="45.3909" lon="6.65262">
        <ele>2098.7</ele>
        <time>2021-12-06T10:51:12Z</time>
      </trkpt>
      <trkpt lat="45.39091" lon="6.65262">
        <ele>2098.7</ele>
        <time>2021-12-06T10:51:37Z</time>
      </trkpt>
      <trkpt lat="45.39089" lon="6.65262">
        <ele>2098.21</ele>
        <time>2021-12-06T10:52:11Z</time>
      </trkpt>
      <trkpt lat="45.39083" lon="6.6527">
        <ele>2099.66</ele>
        <time>2021-12-06T10:52:29Z</time>
      </trkpt>
      <trkpt lat="45.39072" lon="6.65269">
        <ele>2101.58</ele>
        <time>2021-12-06T10:52:47Z</time>
      </trkpt>
      <trkpt lat="45.39062" lon="6.65264">
        <ele>2105.42</ele>
        <time>2021-12-06T10:53:04Z</time>
      </trkpt>
      <trkpt lat="45.39049" lon="6.65261">
        <ele>2106.39</ele>
        <time>2021-12-06T10:53:21Z</time>
      </trkpt>
      <trkpt lat="45.39047" lon="6.65273">
        <ele>2108.31</ele>
        <time>2021-12-06T10:53:40Z</time>
      </trkpt>
      <trkpt lat="45.39045" lon="6.65289">
        <ele>2111.19</ele>
        <time>2021-12-06T10:53:58Z</time>
      </trkpt>
      <trkpt lat="45.39039" lon="6.65298">
        <ele>2113.6</ele>
        <time>2021-12-06T10:54:17Z</time>
      </trkpt>
      <trkpt lat="45.39027" lon="6.6529">
        <ele>2114.08</ele>
        <time>2021-12-06T10:54:35Z</time>
      </trkpt>
      <trkpt lat="45.39018" lon="6.65288">
        <ele>2116.96</ele>
        <time>2021-12-06T10:54:50Z</time>
      </trkpt>
      <trkpt lat="45.39009" lon="6.65294">
        <ele>2117.44</ele>
        <time>2021-12-06T10:55:10Z</time>
      </trkpt>
      <trkpt lat="45.39003" lon="6.6531">
        <ele>2120.81</ele>
        <time>2021-12-06T10:55:27Z</time>
      </trkpt>
      <trkpt lat="45.38993" lon="6.65322">
        <ele>2122.25</ele>
        <time>2021-12-06T10:55:47Z</time>
      </trkpt>
      <trkpt lat="45.38981" lon="6.65332">
        <ele>2123.21</ele>
        <time>2021-12-06T10:56:06Z</time>
      </trkpt>
      <trkpt lat="45.38973" lon="6.65324">
        <ele>2126.57</ele>
        <time>2021-12-06T10:56:24Z</time>
      </trkpt>
      <trkpt lat="45.38964" lon="6.65311">
        <ele>2128.5</ele>
        <time>2021-12-06T10:56:44Z</time>
      </trkpt>
      <trkpt lat="45.38955" lon="6.65315">
        <ele>2130.42</ele>
        <time>2021-12-06T10:57:03Z</time>
      </trkpt>
      <trkpt lat="45.38936" lon="6.65322">
        <ele>2132.34</ele>
        <time>2021-12-06T10:57:28Z</time>
      </trkpt>
      <trkpt lat="45.38929" lon="6.65318">
        <ele>2133.3</ele>
        <time>2021-12-06T10:57:47Z</time>
      </trkpt>
      <trkpt lat="45.38918" lon="6.65335">
        <ele>2135.71</ele>
        <time>2021-12-06T10:58:07Z</time>
      </trkpt>
      <trkpt lat="45.38909" lon="6.65341">
        <ele>2138.11</ele>
        <time>2021-12-06T10:58:28Z</time>
      </trkpt>
      <trkpt lat="45.38901" lon="6.65323">
        <ele>2140.51</ele>
        <time>2021-12-06T10:58:52Z</time>
      </trkpt>
      <trkpt lat="45.38897" lon="6.65319">
        <ele>2141.47</ele>
        <time>2021-12-06T10:59:09Z</time>
      </trkpt>
      <trkpt lat="45.38892" lon="6.65331">
        <ele>2142.44</ele>
        <time>2021-12-06T10:59:23Z</time>
      </trkpt>
      <trkpt lat="45.38881" lon="6.65347">
        <ele>2144.84</ele>
        <time>2021-12-06T10:59:43Z</time>
      </trkpt>
      <trkpt lat="45.3887" lon="6.65366">
        <ele>2148.2</ele>
        <time>2021-12-06T11:00:06Z</time>
      </trkpt>
      <trkpt lat="45.38861" lon="6.6536">
        <ele>2150.13</ele>
        <time>2021-12-06T11:00:26Z</time>
      </trkpt>
      <trkpt lat="45.38854" lon="6.65343">
        <ele>2153.49</ele>
        <time>2021-12-06T11:00:47Z</time>
      </trkpt>
      <trkpt lat="45.38844" lon="6.65353">
        <ele>2154.93</ele>
        <time>2021-12-06T11:01:06Z</time>
      </trkpt>
      <trkpt lat="45.38834" lon="6.65368">
        <ele>2156.37</ele>
        <time>2021-12-06T11:01:25Z</time>
      </trkpt>
      <trkpt lat="45.38823" lon="6.65357">
        <ele>2158.78</ele>
        <time>2021-12-06T11:01:44Z</time>
      </trkpt>
      <trkpt lat="45.38816" lon="6.65356">
        <ele>2159.26</ele>
        <time>2021-12-06T11:01:52Z</time>
      </trkpt>
      <trkpt lat="45.38803" lon="6.65366">
        <ele>2161.18</ele>
        <time>2021-12-06T11:02:11Z</time>
      </trkpt>
      <trkpt lat="45.3879" lon="6.65378">
        <ele>2162.14</ele>
        <time>2021-12-06T11:02:33Z</time>
      </trkpt>
      <trkpt lat="45.38789" lon="6.65379">
        <ele>2163.1</ele>
        <time>2021-12-06T11:02:35Z</time>
      </trkpt>
      <trkpt lat="45.38776" lon="6.65396">
        <ele>2165.03</ele>
        <time>2021-12-06T11:02:56Z</time>
      </trkpt>
      <trkpt lat="45.38774" lon="6.65399">
        <ele>2165.03</ele>
        <time>2021-12-06T11:03:00Z</time>
      </trkpt>
      <trkpt lat="45.38767" lon="6.65418">
        <ele>2166.47</ele>
        <time>2021-12-06T11:03:17Z</time>
      </trkpt>
      <trkpt lat="45.38762" lon="6.65435">
        <ele>2167.43</ele>
        <time>2021-12-06T11:03:34Z</time>
      </trkpt>
      <trkpt lat="45.38756" lon="6.6545">
        <ele>2169.35</ele>
        <time>2021-12-06T11:03:50Z</time>
      </trkpt>
      <trkpt lat="45.38752" lon="6.65465">
        <ele>2170.31</ele>
        <time>2021-12-06T11:04:14Z</time>
      </trkpt>
      <trkpt lat="45.38752" lon="6.65464">
        <ele>2169.83</ele>
        <time>2021-12-06T11:04:43Z</time>
      </trkpt>
      <trkpt lat="45.38752" lon="6.65465">
        <ele>2169.83</ele>
        <time>2021-12-06T11:05:12Z</time>
      </trkpt>
      <trkpt lat="45.3875" lon="6.65468">
        <ele>2170.31</ele>
        <time>2021-12-06T11:05:37Z</time>
      </trkpt>
      <trkpt lat="45.3875" lon="6.65467">
        <ele>2170.31</ele>
        <time>2021-12-06T11:06:13Z</time>
      </trkpt>
      <trkpt lat="45.38751" lon="6.65467">
        <ele>2169.83</ele>
        <time>2021-12-06T11:06:52Z</time>
      </trkpt>
      <trkpt lat="45.38746" lon="6.65471">
        <ele>2170.31</ele>
        <time>2021-12-06T11:07:09Z</time>
      </trkpt>
      <trkpt lat="45.38734" lon="6.65476">
        <ele>2172.72</ele>
        <time>2021-12-06T11:07:26Z</time>
      </trkpt>
      <trkpt lat="45.38733" lon="6.65476">
        <ele>2172.72</ele>
        <time>2021-12-06T11:07:27Z</time>
      </trkpt>
      <trkpt lat="45.38716" lon="6.65481">
        <ele>2174.16</ele>
        <time>2021-12-06T11:07:45Z</time>
      </trkpt>
      <trkpt lat="45.38703" lon="6.6548">
        <ele>2176.56</ele>
        <time>2021-12-06T11:08:02Z</time>
      </trkpt>
      <trkpt lat="45.38689" lon="6.6548">
        <ele>2178.97</ele>
        <time>2021-12-06T11:08:24Z</time>
      </trkpt>
      <trkpt lat="45.38676" lon="6.65481">
        <ele>2180.89</ele>
        <time>2021-12-06T11:08:45Z</time>
      </trkpt>
      <trkpt lat="45.38663" lon="6.65479">
        <ele>2183.29</ele>
        <time>2021-12-06T11:09:02Z</time>
      </trkpt>
      <trkpt lat="45.38651" lon="6.6548">
        <ele>2185.21</ele>
        <time>2021-12-06T11:09:21Z</time>
      </trkpt>
      <trkpt lat="45.38637" lon="6.65478">
        <ele>2187.62</ele>
        <time>2021-12-06T11:09:43Z</time>
      </trkpt>
      <trkpt lat="45.38625" lon="6.65476">
        <ele>2189.54</ele>
        <time>2021-12-06T11:10:02Z</time>
      </trkpt>
      <trkpt lat="45.38608" lon="6.65475">
        <ele>2191.94</ele>
        <time>2021-12-06T11:10:23Z</time>
      </trkpt>
      <trkpt lat="45.38602" lon="6.65474">
        <ele>2193.39</ele>
        <time>2021-12-06T11:10:31Z</time>
      </trkpt>
      <trkpt lat="45.38587" lon="6.65472">
        <ele>2194.35</ele>
        <time>2021-12-06T11:10:48Z</time>
      </trkpt>
      <trkpt lat="45.38575" lon="6.65467">
        <ele>2195.31</ele>
        <time>2021-12-06T11:11:08Z</time>
      </trkpt>
      <trkpt lat="45.38573" lon="6.65462">
        <ele>2194.83</ele>
        <time>2021-12-06T11:11:14Z</time>
      </trkpt>
      <trkpt lat="45.38563" lon="6.65445">
        <ele>2195.79</ele>
        <time>2021-12-06T11:11:31Z</time>
      </trkpt>
      <trkpt lat="45.38553" lon="6.65435">
        <ele>2196.75</ele>
        <time>2021-12-06T11:11:51Z</time>
      </trkpt>
      <trkpt lat="45.38543" lon="6.65431">
        <ele>2198.67</ele>
        <time>2021-12-06T11:12:10Z</time>
      </trkpt>
      <trkpt lat="45.38532" lon="6.65429">
        <ele>2199.15</ele>
        <time>2021-12-06T11:12:26Z</time>
      </trkpt>
      <trkpt lat="45.38529" lon="6.65428">
        <ele>2199.63</ele>
        <time>2021-12-06T11:12:48Z</time>
      </trkpt>
      <trkpt lat="45.38531" lon="6.65427">
        <ele>2200.11</ele>
        <time>2021-12-06T11:13:16Z</time>
      </trkpt>
      <trkpt lat="45.3853" lon="6.65425">
        <ele>2199.63</ele>
        <time>2021-12-06T11:13:49Z</time>
      </trkpt>
      <trkpt lat="45.38534" lon="6.65427">
        <ele>2199.63</ele>
        <time>2021-12-06T11:14:17Z</time>
      </trkpt>
      <trkpt lat="45.3853" lon="6.65434">
        <ele>2199.63</ele>
        <time>2021-12-06T11:14:48Z</time>
      </trkpt>
      <trkpt lat="45.38532" lon="6.65442">
        <ele>2199.15</ele>
        <time>2021-12-06T11:14:56Z</time>
      </trkpt>
      <trkpt lat="45.38533" lon="6.65459">
        <ele>2198.19</ele>
        <time>2021-12-06T11:15:11Z</time>
      </trkpt>
      <trkpt lat="45.38535" lon="6.65466">
        <ele>2197.23</ele>
        <time>2021-12-06T11:15:18Z</time>
      </trkpt>
      <trkpt lat="45.38548" lon="6.65475">
        <ele>2196.27</ele>
        <time>2021-12-06T11:15:36Z</time>
      </trkpt>
      <trkpt lat="45.38562" lon="6.65487">
        <ele>2195.79</ele>
        <time>2021-12-06T11:15:57Z</time>
      </trkpt>
      <trkpt lat="45.38571" lon="6.655">
        <ele>2195.31</ele>
        <time>2021-12-06T11:16:16Z</time>
      </trkpt>
      <trkpt lat="45.38577" lon="6.65515">
        <ele>2193.87</ele>
        <time>2021-12-06T11:16:35Z</time>
      </trkpt>
      <trkpt lat="45.38578" lon="6.65533">
        <ele>2190.98</ele>
        <time>2021-12-06T11:16:52Z</time>
      </trkpt>
      <trkpt lat="45.38578" lon="6.6555">
        <ele>2189.54</ele>
        <time>2021-12-06T11:17:09Z</time>
      </trkpt>
      <trkpt lat="45.3858" lon="6.6557">
        <ele>2189.54</ele>
        <time>2021-12-06T11:17:29Z</time>
      </trkpt>
      <trkpt lat="45.3858" lon="6.65573">
        <ele>2189.54</ele>
        <time>2021-12-06T11:17:32Z</time>
      </trkpt>
      <trkpt lat="45.38579" lon="6.65592">
        <ele>2190.02</ele>
        <time>2021-12-06T11:17:51Z</time>
      </trkpt>
      <trkpt lat="45.3858" lon="6.65609">
        <ele>2189.06</ele>
        <time>2021-12-06T11:18:11Z</time>
      </trkpt>
      <trkpt lat="45.3858" lon="6.65626">
        <ele>2190.02</ele>
        <time>2021-12-06T11:18:30Z</time>
      </trkpt>
      <trkpt lat="45.38577" lon="6.65646">
        <ele>2188.1</ele>
        <time>2021-12-06T11:18:50Z</time>
      </trkpt>
      <trkpt lat="45.38575" lon="6.65663">
        <ele>2188.58</ele>
        <time>2021-12-06T11:19:08Z</time>
      </trkpt>
      <trkpt lat="45.38572" lon="6.65675">
        <ele>2189.06</ele>
        <time>2021-12-06T11:19:25Z</time>
      </trkpt>
      <trkpt lat="45.38569" lon="6.65691">
        <ele>2188.58</ele>
        <time>2021-12-06T11:19:42Z</time>
      </trkpt>
      <trkpt lat="45.38555" lon="6.65702">
        <ele>2189.06</ele>
        <time>2021-12-06T11:20:00Z</time>
      </trkpt>
      <trkpt lat="45.38542" lon="6.65713">
        <ele>2189.54</ele>
        <time>2021-12-06T11:20:19Z</time>
      </trkpt>
      <trkpt lat="45.3853" lon="6.65721">
        <ele>2189.06</ele>
        <time>2021-12-06T11:20:37Z</time>
      </trkpt>
      <trkpt lat="45.38519" lon="6.65728">
        <ele>2189.06</ele>
        <time>2021-12-06T11:20:54Z</time>
      </trkpt>
      <trkpt lat="45.38505" lon="6.65738">
        <ele>2191.46</ele>
        <time>2021-12-06T11:21:15Z</time>
      </trkpt>
      <trkpt lat="45.38495" lon="6.65751">
        <ele>2192.42</ele>
        <time>2021-12-06T11:21:34Z</time>
      </trkpt>
      <trkpt lat="45.38483" lon="6.65764">
        <ele>2194.35</ele>
        <time>2021-12-06T11:21:55Z</time>
      </trkpt>
      <trkpt lat="45.3847" lon="6.65777">
        <ele>2195.31</ele>
        <time>2021-12-06T11:22:21Z</time>
      </trkpt>
      <trkpt lat="45.38462" lon="6.65789">
        <ele>2197.23</ele>
        <time>2021-12-06T11:22:40Z</time>
      </trkpt>
      <trkpt lat="45.38453" lon="6.65802">
        <ele>2199.63</ele>
        <time>2021-12-06T11:23:02Z</time>
      </trkpt>
      <trkpt lat="45.38446" lon="6.65821">
        <ele>2200.59</ele>
        <time>2021-12-06T11:23:22Z</time>
      </trkpt>
      <trkpt lat="45.38447" lon="6.65836">
        <ele>2201.08</ele>
        <time>2021-12-06T11:23:39Z</time>
      </trkpt>
      <trkpt lat="45.38449" lon="6.65851">
        <ele>2202.04</ele>
        <time>2021-12-06T11:23:59Z</time>
      </trkpt>
      <trkpt lat="45.38448" lon="6.65869">
        <ele>2204.92</ele>
        <time>2021-12-06T11:24:18Z</time>
      </trkpt>
      <trkpt lat="45.3845" lon="6.65883">
        <ele>2205.4</ele>
        <time>2021-12-06T11:24:36Z</time>
      </trkpt>
      <trkpt lat="45.3845" lon="6.65899">
        <ele>2206.36</ele>
        <time>2021-12-06T11:24:54Z</time>
      </trkpt>
      <trkpt lat="45.38447" lon="6.65916">
        <ele>2208.29</ele>
        <time>2021-12-06T11:25:16Z</time>
      </trkpt>
      <trkpt lat="45.3844" lon="6.65935">
        <ele>2209.73</ele>
        <time>2021-12-06T11:25:38Z</time>
      </trkpt>
      <trkpt lat="45.38434" lon="6.65957">
        <ele>2212.13</ele>
        <time>2021-12-06T11:26:00Z</time>
      </trkpt>
      <trkpt lat="45.3843" lon="6.65974">
        <ele>2212.61</ele>
        <time>2021-12-06T11:26:21Z</time>
      </trkpt>
      <trkpt lat="45.38424" lon="6.65992">
        <ele>2213.57</ele>
        <time>2021-12-06T11:26:43Z</time>
      </trkpt>
      <trkpt lat="45.38415" lon="6.66007">
        <ele>2215.5</ele>
        <time>2021-12-06T11:27:05Z</time>
      </trkpt>
      <trkpt lat="45.38407" lon="6.66021">
        <ele>2216.94</ele>
        <time>2021-12-06T11:27:25Z</time>
      </trkpt>
      <trkpt lat="45.384" lon="6.66032">
        <ele>2219.82</ele>
        <time>2021-12-06T11:27:47Z</time>
      </trkpt>
      <trkpt lat="45.38394" lon="6.66044">
        <ele>2220.78</ele>
        <time>2021-12-06T11:28:08Z</time>
      </trkpt>
      <trkpt lat="45.38387" lon="6.66061">
        <ele>2222.71</ele>
        <time>2021-12-06T11:28:30Z</time>
      </trkpt>
      <trkpt lat="45.3839" lon="6.66068">
        <ele>2225.11</ele>
        <time>2021-12-06T11:28:47Z</time>
      </trkpt>
      <trkpt lat="45.38388" lon="6.66077">
        <ele>2226.55</ele>
        <time>2021-12-06T11:29:03Z</time>
      </trkpt>
      <trkpt lat="45.3839" lon="6.66085">
        <ele>2229.43</ele>
        <time>2021-12-06T11:29:22Z</time>
      </trkpt>
      <trkpt lat="45.38392" lon="6.66091">
        <ele>2229.92</ele>
        <time>2021-12-06T11:29:41Z</time>
      </trkpt>
      <trkpt lat="45.38394" lon="6.66096">
        <ele>2229.92</ele>
        <time>2021-12-06T11:30:07Z</time>
      </trkpt>
      <trkpt lat="45.38408" lon="6.66096">
        <ele>2230.88</ele>
        <time>2021-12-06T11:30:28Z</time>
      </trkpt>
      <trkpt lat="45.38421" lon="6.66096">
        <ele>2233.28</ele>
        <time>2021-12-06T11:30:48Z</time>
      </trkpt>
      <trkpt lat="45.38431" lon="6.66096">
        <ele>2234.72</ele>
        <time>2021-12-06T11:31:08Z</time>
      </trkpt>
      <trkpt lat="45.38441" lon="6.66095">
        <ele>2237.13</ele>
        <time>2021-12-06T11:31:29Z</time>
      </trkpt>
      <trkpt lat="45.38454" lon="6.66095">
        <ele>2238.57</ele>
        <time>2021-12-06T11:31:46Z</time>
      </trkpt>
      <trkpt lat="45.38459" lon="6.66094">
        <ele>2239.05</ele>
        <time>2021-12-06T11:31:54Z</time>
      </trkpt>
      <trkpt lat="45.3847" lon="6.66092">
        <ele>2239.53</ele>
        <time>2021-12-06T11:32:13Z</time>
      </trkpt>
      <trkpt lat="45.38481" lon="6.66092">
        <ele>2240.49</ele>
        <time>2021-12-06T11:32:34Z</time>
      </trkpt>
      <trkpt lat="45.38497" lon="6.66094">
        <ele>2242.89</ele>
        <time>2021-12-06T11:32:55Z</time>
      </trkpt>
      <trkpt lat="45.38512" lon="6.66102">
        <ele>2243.37</ele>
        <time>2021-12-06T11:33:18Z</time>
      </trkpt>
      <trkpt lat="45.38525" lon="6.66113">
        <ele>2245.78</ele>
        <time>2021-12-06T11:33:40Z</time>
      </trkpt>
      <trkpt lat="45.38535" lon="6.66124">
        <ele>2245.78</ele>
        <time>2021-12-06T11:33:59Z</time>
      </trkpt>
      <trkpt lat="45.38544" lon="6.66133">
        <ele>2247.22</ele>
        <time>2021-12-06T11:34:18Z</time>
      </trkpt>
      <trkpt lat="45.38549" lon="6.66127">
        <ele>2247.22</ele>
        <time>2021-12-06T11:34:29Z</time>
      </trkpt>
      <trkpt lat="45.38553" lon="6.66116">
        <ele>2250.1</ele>
        <time>2021-12-06T11:34:43Z</time>
      </trkpt>
      <trkpt lat="45.38552" lon="6.66105">
        <ele>2252.51</ele>
        <time>2021-12-06T11:35:00Z</time>
      </trkpt>
      <trkpt lat="45.38547" lon="6.66093">
        <ele>2254.43</ele>
        <time>2021-12-06T11:35:20Z</time>
      </trkpt>
      <trkpt lat="45.38536" lon="6.66082">
        <ele>2255.87</ele>
        <time>2021-12-06T11:35:39Z</time>
      </trkpt>
      <trkpt lat="45.38526" lon="6.66073">
        <ele>2256.83</ele>
        <time>2021-12-06T11:35:57Z</time>
      </trkpt>
      <trkpt lat="45.38515" lon="6.66063">
        <ele>2258.27</ele>
        <time>2021-12-06T11:36:17Z</time>
      </trkpt>
      <trkpt lat="45.3851" lon="6.66052">
        <ele>2258.75</ele>
        <time>2021-12-06T11:36:40Z</time>
      </trkpt>
      <trkpt lat="45.38508" lon="6.66049">
        <ele>2258.75</ele>
        <time>2021-12-06T11:36:57Z</time>
      </trkpt>
      <trkpt lat="45.38508" lon="6.66046">
        <ele>2258.27</ele>
        <time>2021-12-06T11:37:29Z</time>
      </trkpt>
      <trkpt lat="45.38506" lon="6.66045">
        <ele>2258.27</ele>
        <time>2021-12-06T11:37:53Z</time>
      </trkpt>
      <trkpt lat="45.38506" lon="6.66046">
        <ele>2257.79</ele>
        <time>2021-12-06T11:38:19Z</time>
      </trkpt>
      <trkpt lat="45.38507" lon="6.66048">
        <ele>2258.27</ele>
        <time>2021-12-06T11:38:51Z</time>
      </trkpt>
      <trkpt lat="45.38508" lon="6.66048">
        <ele>2257.31</ele>
        <time>2021-12-06T11:39:17Z</time>
      </trkpt>
      <trkpt lat="45.38509" lon="6.66048">
        <ele>2256.83</ele>
        <time>2021-12-06T11:39:43Z</time>
      </trkpt>
      <trkpt lat="45.38509" lon="6.66049">
        <ele>2255.39</ele>
        <time>2021-12-06T11:40:21Z</time>
      </trkpt>
      <trkpt lat="45.38507" lon="6.66048">
        <ele>2256.35</ele>
        <time>2021-12-06T11:40:44Z</time>
      </trkpt>
      <trkpt lat="45.38507" lon="6.66048">
        <ele>2256.83</ele>
        <time>2021-12-06T11:41:08Z</time>
      </trkpt>
      <trkpt lat="45.38506" lon="6.6605">
        <ele>2256.35</ele>
        <time>2021-12-06T11:41:33Z</time>
      </trkpt>
      <trkpt lat="45.38507" lon="6.6605">
        <ele>2256.35</ele>
        <time>2021-12-06T11:42:02Z</time>
      </trkpt>
      <trkpt lat="45.38506" lon="6.66051">
        <ele>2256.35</ele>
        <time>2021-12-06T11:42:34Z</time>
      </trkpt>
      <trkpt lat="45.38506" lon="6.66051">
        <ele>2256.35</ele>
        <time>2021-12-06T11:43:04Z</time>
      </trkpt>
      <trkpt lat="45.38507" lon="6.66053">
        <ele>2256.35</ele>
        <time>2021-12-06T11:43:30Z</time>
      </trkpt>
      <trkpt lat="45.38505" lon="6.66051">
        <ele>2255.87</ele>
        <time>2021-12-06T11:43:57Z</time>
      </trkpt>
      <trkpt lat="45.38506" lon="6.66053">
        <ele>2256.35</ele>
        <time>2021-12-06T11:44:27Z</time>
      </trkpt>
      <trkpt lat="45.38507" lon="6.66053">
        <ele>2256.35</ele>
        <time>2021-12-06T11:44:54Z</time>
      </trkpt>
      <trkpt lat="45.38507" lon="6.66054">
        <ele>2256.35</ele>
        <time>2021-12-06T11:45:33Z</time>
      </trkpt>
      <trkpt lat="45.38506" lon="6.6605">
        <ele>2255.87</ele>
        <time>2021-12-06T11:46:06Z</time>
      </trkpt>
      <trkpt lat="45.38506" lon="6.6605">
        <ele>2255.87</ele>
        <time>2021-12-06T11:46:39Z</time>
      </trkpt>
      <trkpt lat="45.38508" lon="6.66046">
        <ele>2255.39</ele>
        <time>2021-12-06T11:47:06Z</time>
      </trkpt>
      <trkpt lat="45.38507" lon="6.66047">
        <ele>2255.39</ele>
        <time>2021-12-06T11:47:40Z</time>
      </trkpt>
      <trkpt lat="45.38506" lon="6.66049">
        <ele>2255.39</ele>
        <time>2021-12-06T11:48:03Z</time>
      </trkpt>
      <trkpt lat="45.38508" lon="6.66049">
        <ele>2254.91</ele>
        <time>2021-12-06T11:48:33Z</time>
      </trkpt>
      <trkpt lat="45.38507" lon="6.66049">
        <ele>2255.39</ele>
        <time>2021-12-06T11:49:00Z</time>
      </trkpt>
      <trkpt lat="45.38507" lon="6.66049">
        <ele>2254.91</ele>
        <time>2021-12-06T11:49:27Z</time>
      </trkpt>
      <trkpt lat="45.38507" lon="6.66051">
        <ele>2254.91</ele>
        <time>2021-12-06T11:50:03Z</time>
      </trkpt>
      <trkpt lat="45.38507" lon="6.66052">
        <ele>2255.39</ele>
        <time>2021-12-06T11:50:40Z</time>
      </trkpt>
      <trkpt lat="45.38507" lon="6.66048">
        <ele>2255.39</ele>
        <time>2021-12-06T11:51:19Z</time>
      </trkpt>
      <trkpt lat="45.38508" lon="6.66048">
        <ele>2255.39</ele>
        <time>2021-12-06T11:51:50Z</time>
      </trkpt>
      <trkpt lat="45.38508" lon="6.66048">
        <ele>2255.39</ele>
        <time>2021-12-06T11:52:24Z</time>
      </trkpt>
      <trkpt lat="45.38508" lon="6.66049">
        <ele>2255.39</ele>
        <time>2021-12-06T11:53:06Z</time>
      </trkpt>
      <trkpt lat="45.38507" lon="6.66049">
        <ele>2254.91</ele>
        <time>2021-12-06T11:53:36Z</time>
      </trkpt>
      <trkpt lat="45.38508" lon="6.66049">
        <ele>2254.91</ele>
        <time>2021-12-06T11:54:08Z</time>
      </trkpt>
      <trkpt lat="45.38507" lon="6.66052">
        <ele>2255.87</ele>
        <time>2021-12-06T11:54:38Z</time>
      </trkpt>
      <trkpt lat="45.38505" lon="6.66052">
        <ele>2255.87</ele>
        <time>2021-12-06T11:55:13Z</time>
      </trkpt>
      <trkpt lat="45.38508" lon="6.66049">
        <ele>2255.87</ele>
        <time>2021-12-06T11:55:45Z</time>
      </trkpt>
      <trkpt lat="45.38508" lon="6.6605">
        <ele>2256.35</ele>
        <time>2021-12-06T11:56:16Z</time>
      </trkpt>
      <trkpt lat="45.38507" lon="6.66051">
        <ele>2255.87</ele>
        <time>2021-12-06T11:56:46Z</time>
      </trkpt>
      <trkpt lat="45.38506" lon="6.6605">
        <ele>2256.35</ele>
        <time>2021-12-06T11:57:25Z</time>
      </trkpt>
      <trkpt lat="45.38506" lon="6.66052">
        <ele>2253.47</ele>
        <time>2021-12-06T11:57:39Z</time>
      </trkpt>
      <trkpt lat="45.38506" lon="6.66052">
        <ele>2261.16</ele>
        <time>2021-12-06T11:57:40Z</time>
      </trkpt>
      <trkpt lat="45.38508" lon="6.66053">
        <ele>2257.31</ele>
        <time>2021-12-06T11:57:41Z</time>
      </trkpt>
      <trkpt lat="45.38508" lon="6.66053">
        <ele>2256.35</ele>
        <time>2021-12-06T11:57:43Z</time>
      </trkpt>
      <trkpt lat="45.38508" lon="6.66055">
        <ele>2256.83</ele>
        <time>2021-12-06T11:57:58Z</time>
      </trkpt>
      <trkpt lat="45.38511" lon="6.66049">
        <ele>2256.83</ele>
        <time>2021-12-06T11:58:33Z</time>
      </trkpt>
      <trkpt lat="45.38509" lon="6.66052">
        <ele>2256.83</ele>
        <time>2021-12-06T11:58:58Z</time>
      </trkpt>
      <trkpt lat="45.38508" lon="6.66052">
        <ele>2256.35</ele>
        <time>2021-12-06T11:59:29Z</time>
      </trkpt>
      <trkpt lat="45.38508" lon="6.66051">
        <ele>2256.35</ele>
        <time>2021-12-06T12:00:04Z</time>
      </trkpt>
      <trkpt lat="45.3851" lon="6.66051">
        <ele>2256.35</ele>
        <time>2021-12-06T12:00:38Z</time>
      </trkpt>
      <trkpt lat="45.38509" lon="6.66051">
        <ele>2256.35</ele>
        <time>2021-12-06T12:01:10Z</time>
      </trkpt>
      <trkpt lat="45.3851" lon="6.66052">
        <ele>2255.87</ele>
        <time>2021-12-06T12:01:33Z</time>
      </trkpt>
      <trkpt lat="45.3851" lon="6.66051">
        <ele>2255.87</ele>
        <time>2021-12-06T12:01:53Z</time>
      </trkpt>
      <trkpt lat="45.38508" lon="6.66053">
        <ele>2255.87</ele>
        <time>2021-12-06T12:02:24Z</time>
      </trkpt>
      <trkpt lat="45.38507" lon="6.66054">
        <ele>2256.35</ele>
        <time>2021-12-06T12:02:57Z</time>
      </trkpt>
      <trkpt lat="45.38509" lon="6.66048">
        <ele>2256.35</ele>
        <time>2021-12-06T12:03:16Z</time>
      </trkpt>
      <trkpt lat="45.3851" lon="6.66047">
        <ele>2255.39</ele>
        <time>2021-12-06T12:03:36Z</time>
      </trkpt>
      <trkpt lat="45.3851" lon="6.66048">
        <ele>2256.83</ele>
        <time>2021-12-06T12:04:01Z</time>
      </trkpt>
      <trkpt lat="45.38512" lon="6.66048">
        <ele>2256.83</ele>
        <time>2021-12-06T12:04:24Z</time>
      </trkpt>
      <trkpt lat="45.38512" lon="6.66048">
        <ele>2257.79</ele>
        <time>2021-12-06T12:04:40Z</time>
      </trkpt>
      <trkpt lat="45.38512" lon="6.66047">
        <ele>2257.79</ele>
        <time>2021-12-06T12:05:05Z</time>
      </trkpt>
      <trkpt lat="45.38511" lon="6.66048">
        <ele>2257.79</ele>
        <time>2021-12-06T12:05:31Z</time>
      </trkpt>
      <trkpt lat="45.38512" lon="6.66049">
        <ele>2257.31</ele>
        <time>2021-12-06T12:05:59Z</time>
      </trkpt>
      <trkpt lat="45.38512" lon="6.6605">
        <ele>2258.27</ele>
        <time>2021-12-06T12:06:15Z</time>
      </trkpt>
      <trkpt lat="45.3851" lon="6.66048">
        <ele>2258.27</ele>
        <time>2021-12-06T12:06:38Z</time>
      </trkpt>
      <trkpt lat="45.38511" lon="6.66047">
        <ele>2255.39</ele>
        <time>2021-12-06T12:06:43Z</time>
      </trkpt>
      <trkpt lat="45.3851" lon="6.66047">
        <ele>2258.27</ele>
        <time>2021-12-06T12:07:00Z</time>
      </trkpt>
      <trkpt lat="45.38508" lon="6.66048">
        <ele>2258.27</ele>
        <time>2021-12-06T12:07:27Z</time>
      </trkpt>
      <trkpt lat="45.38509" lon="6.66045">
        <ele>2257.31</ele>
        <time>2021-12-06T12:07:55Z</time>
      </trkpt>
      <trkpt lat="45.38508" lon="6.66047">
        <ele>2258.27</ele>
        <time>2021-12-06T12:08:11Z</time>
      </trkpt>
      <trkpt lat="45.38509" lon="6.66048">
        <ele>2256.35</ele>
        <time>2021-12-06T12:08:14Z</time>
      </trkpt>
      <trkpt lat="45.38511" lon="6.66048">
        <ele>2256.83</ele>
        <time>2021-12-06T12:08:46Z</time>
      </trkpt>
      <trkpt lat="45.3851" lon="6.66048">
        <ele>2256.83</ele>
        <time>2021-12-06T12:09:23Z</time>
      </trkpt>
      <trkpt lat="45.38508" lon="6.66047">
        <ele>2256.83</ele>
        <time>2021-12-06T12:09:53Z</time>
      </trkpt>
      <trkpt lat="45.38509" lon="6.66048">
        <ele>2257.31</ele>
        <time>2021-12-06T12:10:27Z</time>
      </trkpt>
      <trkpt lat="45.38508" lon="6.66049">
        <ele>2257.79</ele>
        <time>2021-12-06T12:11:09Z</time>
      </trkpt>
      <trkpt lat="45.38508" lon="6.66049">
        <ele>2257.31</ele>
        <time>2021-12-06T12:11:39Z</time>
      </trkpt>
      <trkpt lat="45.38508" lon="6.66049">
        <ele>2257.31</ele>
        <time>2021-12-06T12:12:10Z</time>
      </trkpt>
      <trkpt lat="45.3851" lon="6.66048">
        <ele>2257.31</ele>
        <time>2021-12-06T12:12:40Z</time>
      </trkpt>
      <trkpt lat="45.38511" lon="6.66048">
        <ele>2257.31</ele>
        <time>2021-12-06T12:13:14Z</time>
      </trkpt>
      <trkpt lat="45.38511" lon="6.66046">
        <ele>2257.31</ele>
        <time>2021-12-06T12:13:47Z</time>
      </trkpt>
      <trkpt lat="45.38511" lon="6.66047">
        <ele>2257.31</ele>
        <time>2021-12-06T12:14:21Z</time>
      </trkpt>
      <trkpt lat="45.38511" lon="6.66047">
        <ele>2257.31</ele>
        <time>2021-12-06T12:14:29Z</time>
      </trkpt>
      <trkpt lat="45.38508" lon="6.66047">
        <ele>2257.79</ele>
        <time>2021-12-06T12:14:57Z</time>
      </trkpt>
      <trkpt lat="45.3851" lon="6.66049">
        <ele>2255.39</ele>
        <time>2021-12-06T12:15:07Z</time>
      </trkpt>
      <trkpt lat="45.38511" lon="6.66047">
        <ele>2259.72</ele>
        <time>2021-12-06T12:15:14Z</time>
      </trkpt>
      <trkpt lat="45.38512" lon="6.66046">
        <ele>2259.24</ele>
        <time>2021-12-06T12:15:15Z</time>
      </trkpt>
      <trkpt lat="45.38509" lon="6.66045">
        <ele>2258.75</ele>
        <time>2021-12-06T12:15:39Z</time>
      </trkpt>
      <trkpt lat="45.38511" lon="6.66053">
        <ele>2259.24</ele>
        <time>2021-12-06T12:16:02Z</time>
      </trkpt>
      <trkpt lat="45.38509" lon="6.66051">
        <ele>2258.27</ele>
        <time>2021-12-06T12:16:28Z</time>
      </trkpt>
      <trkpt lat="45.38508" lon="6.6605">
        <ele>2258.27</ele>
        <time>2021-12-06T12:16:50Z</time>
      </trkpt>
      <trkpt lat="45.38509" lon="6.6605">
        <ele>2259.72</ele>
        <time>2021-12-06T12:16:53Z</time>
      </trkpt>
      <trkpt lat="45.38509" lon="6.6605">
        <ele>2257.79</ele>
        <time>2021-12-06T12:17:14Z</time>
      </trkpt>
      <trkpt lat="45.3851" lon="6.66049">
        <ele>2257.79</ele>
        <time>2021-12-06T12:17:43Z</time>
      </trkpt>
      <trkpt lat="45.38508" lon="6.66049">
        <ele>2257.79</ele>
        <time>2021-12-06T12:18:07Z</time>
      </trkpt>
      <trkpt lat="45.38509" lon="6.66049">
        <ele>2258.27</ele>
        <time>2021-12-06T12:18:40Z</time>
      </trkpt>
      <trkpt lat="45.38508" lon="6.66049">
        <ele>2258.27</ele>
        <time>2021-12-06T12:19:03Z</time>
      </trkpt>
      <trkpt lat="45.38508" lon="6.66049">
        <ele>2257.79</ele>
        <time>2021-12-06T12:19:27Z</time>
      </trkpt>
      <trkpt lat="45.38508" lon="6.6605">
        <ele>2258.27</ele>
        <time>2021-12-06T12:19:54Z</time>
      </trkpt>
      <trkpt lat="45.38508" lon="6.66049">
        <ele>2258.27</ele>
        <time>2021-12-06T12:20:19Z</time>
      </trkpt>
      <trkpt lat="45.38509" lon="6.66051">
        <ele>2258.27</ele>
        <time>2021-12-06T12:20:44Z</time>
      </trkpt>
      <trkpt lat="45.38511" lon="6.6605">
        <ele>2258.27</ele>
        <time>2021-12-06T12:21:12Z</time>
      </trkpt>
      <trkpt lat="45.38508" lon="6.66049">
        <ele>2258.27</ele>
        <time>2021-12-06T12:21:36Z</time>
      </trkpt>
      <trkpt lat="45.38508" lon="6.66049">
        <ele>2258.27</ele>
        <time>2021-12-06T12:22:03Z</time>
      </trkpt>
      <trkpt lat="45.38507" lon="6.66049">
        <ele>2258.75</ele>
        <time>2021-12-06T12:22:29Z</time>
      </trkpt>
      <trkpt lat="45.38507" lon="6.66051">
        <ele>2258.27</ele>
        <time>2021-12-06T12:22:55Z</time>
      </trkpt>
      <trkpt lat="45.38507" lon="6.6605">
        <ele>2258.75</ele>
        <time>2021-12-06T12:23:19Z</time>
      </trkpt>
      <trkpt lat="45.38508" lon="6.66051">
        <ele>2258.75</ele>
        <time>2021-12-06T12:23:45Z</time>
      </trkpt>
      <trkpt lat="45.38508" lon="6.6605">
        <ele>2258.75</ele>
        <time>2021-12-06T12:24:08Z</time>
      </trkpt>
      <trkpt lat="45.38507" lon="6.6605">
        <ele>2259.24</ele>
        <time>2021-12-06T12:24:38Z</time>
      </trkpt>
      <trkpt lat="45.38508" lon="6.6605">
        <ele>2258.75</ele>
        <time>2021-12-06T12:25:02Z</time>
      </trkpt>
      <trkpt lat="45.38507" lon="6.66049">
        <ele>2258.75</ele>
        <time>2021-12-06T12:25:31Z</time>
      </trkpt>
      <trkpt lat="45.38509" lon="6.6605">
        <ele>2259.24</ele>
        <time>2021-12-06T12:25:55Z</time>
      </trkpt>
      <trkpt lat="45.38508" lon="6.6605">
        <ele>2258.75</ele>
        <time>2021-12-06T12:26:13Z</time>
      </trkpt>
      <trkpt lat="45.38508" lon="6.66049">
        <ele>2258.75</ele>
        <time>2021-12-06T12:26:39Z</time>
      </trkpt>
      <trkpt lat="45.38509" lon="6.66051">
        <ele>2258.75</ele>
        <time>2021-12-06T12:27:01Z</time>
      </trkpt>
      <trkpt lat="45.3851" lon="6.6605">
        <ele>2258.75</ele>
        <time>2021-12-06T12:27:23Z</time>
      </trkpt>
      <trkpt lat="45.38509" lon="6.66051">
        <ele>2258.75</ele>
        <time>2021-12-06T12:27:54Z</time>
      </trkpt>
      <trkpt lat="45.3851" lon="6.66051">
        <ele>2258.75</ele>
        <time>2021-12-06T12:28:22Z</time>
      </trkpt>
      <trkpt lat="45.38509" lon="6.66051">
        <ele>2258.75</ele>
        <time>2021-12-06T12:28:52Z</time>
      </trkpt>
      <trkpt lat="45.38511" lon="6.6605">
        <ele>2242.89</ele>
        <time>2021-12-06T12:28:57Z</time>
      </trkpt>
      <trkpt lat="45.38511" lon="6.66049">
        <ele>2273.17</ele>
        <time>2021-12-06T12:28:58Z</time>
      </trkpt>
      <trkpt lat="45.38512" lon="6.66049">
        <ele>2260.68</ele>
        <time>2021-12-06T12:28:59Z</time>
      </trkpt>
      <trkpt lat="45.38512" lon="6.66049">
        <ele>2259.24</ele>
        <time>2021-12-06T12:29:01Z</time>
      </trkpt>
      <trkpt lat="45.38507" lon="6.6605">
        <ele>2258.75</ele>
        <time>2021-12-06T12:29:23Z</time>
      </trkpt>
      <trkpt lat="45.38508" lon="6.6605">
        <ele>2258.75</ele>
        <time>2021-12-06T12:29:43Z</time>
      </trkpt>
      <trkpt lat="45.38511" lon="6.66047">
        <ele>2259.24</ele>
        <time>2021-12-06T12:30:01Z</time>
      </trkpt>
      <trkpt lat="45.38513" lon="6.66049">
        <ele>2258.75</ele>
        <time>2021-12-06T12:30:21Z</time>
      </trkpt>
      <trkpt lat="45.38513" lon="6.6605">
        <ele>2259.24</ele>
        <time>2021-12-06T12:30:49Z</time>
      </trkpt>
      <trkpt lat="45.38515" lon="6.66049">
        <ele>2259.24</ele>
        <time>2021-12-06T12:31:19Z</time>
      </trkpt>
      <trkpt lat="45.38513" lon="6.66049">
        <ele>2259.24</ele>
        <time>2021-12-06T12:31:46Z</time>
      </trkpt>
      <trkpt lat="45.38512" lon="6.66048">
        <ele>2259.24</ele>
        <time>2021-12-06T12:32:09Z</time>
      </trkpt>
      <trkpt lat="45.38514" lon="6.66051">
        <ele>2258.75</ele>
        <time>2021-12-06T12:32:41Z</time>
      </trkpt>
      <trkpt lat="45.38514" lon="6.66057">
        <ele>2259.24</ele>
        <time>2021-12-06T12:33:01Z</time>
      </trkpt>
      <trkpt lat="45.38513" lon="6.66061">
        <ele>2258.75</ele>
        <time>2021-12-06T12:33:20Z</time>
      </trkpt>
      <trkpt lat="45.38512" lon="6.66061">
        <ele>2259.24</ele>
        <time>2021-12-06T12:33:37Z</time>
      </trkpt>
      <trkpt lat="45.38511" lon="6.6606">
        <ele>2259.24</ele>
        <time>2021-12-06T12:34:07Z</time>
      </trkpt>
      <trkpt lat="45.38513" lon="6.66062">
        <ele>2259.24</ele>
        <time>2021-12-06T12:34:34Z</time>
      </trkpt>
      <trkpt lat="45.38513" lon="6.6606">
        <ele>2258.75</ele>
        <time>2021-12-06T12:35:00Z</time>
      </trkpt>
      <trkpt lat="45.38515" lon="6.66059">
        <ele>2259.24</ele>
        <time>2021-12-06T12:35:32Z</time>
      </trkpt>
      <trkpt lat="45.38519" lon="6.66057">
        <ele>2258.75</ele>
        <time>2021-12-06T12:35:57Z</time>
      </trkpt>
      <trkpt lat="45.38525" lon="6.66058">
        <ele>2257.79</ele>
        <time>2021-12-06T12:36:14Z</time>
      </trkpt>
      <trkpt lat="45.38528" lon="6.66057">
        <ele>2258.27</ele>
        <time>2021-12-06T12:36:18Z</time>
      </trkpt>
      <trkpt lat="45.38543" lon="6.66053">
        <ele>2258.27</ele>
        <time>2021-12-06T12:36:34Z</time>
      </trkpt>
      <trkpt lat="45.38555" lon="6.66051">
        <ele>2258.27</ele>
        <time>2021-12-06T12:36:49Z</time>
      </trkpt>
      <trkpt lat="45.38561" lon="6.66051">
        <ele>2258.27</ele>
        <time>2021-12-06T12:37:03Z</time>
      </trkpt>
      <trkpt lat="45.38562" lon="6.66052">
        <ele>2257.79</ele>
        <time>2021-12-06T12:37:29Z</time>
      </trkpt>
      <trkpt lat="45.3857" lon="6.66048">
        <ele>2256.35</ele>
        <time>2021-12-06T12:37:51Z</time>
      </trkpt>
      <trkpt lat="45.38572" lon="6.66047">
        <ele>2255.87</ele>
        <time>2021-12-06T12:37:54Z</time>
      </trkpt>
      <trkpt lat="45.38576" lon="6.66042">
        <ele>2255.39</ele>
        <time>2021-12-06T12:38:01Z</time>
      </trkpt>
      <trkpt lat="45.38587" lon="6.66034">
        <ele>2252.51</ele>
        <time>2021-12-06T12:38:16Z</time>
      </trkpt>
      <trkpt lat="45.38593" lon="6.66025">
        <ele>2250.58</ele>
        <time>2021-12-06T12:38:28Z</time>
      </trkpt>
      <trkpt lat="45.38598" lon="6.6602">
        <ele>2249.62</ele>
        <time>2021-12-06T12:38:34Z</time>
      </trkpt>
      <trkpt lat="45.38603" lon="6.66012">
        <ele>2246.26</ele>
        <time>2021-12-06T12:38:46Z</time>
      </trkpt>
      <trkpt lat="45.38603" lon="6.66011">
        <ele>2245.78</ele>
        <time>2021-12-06T12:38:47Z</time>
      </trkpt>
      <trkpt lat="45.38605" lon="6.66009">
        <ele>2244.82</ele>
        <time>2021-12-06T12:38:51Z</time>
      </trkpt>
      <trkpt lat="45.38612" lon="6.65998">
        <ele>2241.45</ele>
        <time>2021-12-06T12:39:02Z</time>
      </trkpt>
      <trkpt lat="45.38616" lon="6.65994">
        <ele>2240.01</ele>
        <time>2021-12-06T12:39:15Z</time>
      </trkpt>
      <trkpt lat="45.38622" lon="6.65997">
        <ele>2240.01</ele>
        <time>2021-12-06T12:39:26Z</time>
      </trkpt>
      <trkpt lat="45.38636" lon="6.66003">
        <ele>2238.57</ele>
        <time>2021-12-06T12:39:42Z</time>
      </trkpt>
      <trkpt lat="45.38646" lon="6.6601">
        <ele>2238.57</ele>
        <time>2021-12-06T12:39:58Z</time>
      </trkpt>
      <trkpt lat="45.38653" lon="6.66012">
        <ele>2238.57</ele>
        <time>2021-12-06T12:40:13Z</time>
      </trkpt>
      <trkpt lat="45.38664" lon="6.66014">
        <ele>2238.09</ele>
        <time>2021-12-06T12:40:31Z</time>
      </trkpt>
      <trkpt lat="45.38671" lon="6.66015">
        <ele>2239.05</ele>
        <time>2021-12-06T12:40:48Z</time>
      </trkpt>
      <trkpt lat="45.38678" lon="6.66014">
        <ele>2238.57</ele>
        <time>2021-12-06T12:40:58Z</time>
      </trkpt>
      <trkpt lat="45.38689" lon="6.6601">
        <ele>2238.09</ele>
        <time>2021-12-06T12:41:14Z</time>
      </trkpt>
      <trkpt lat="45.38695" lon="6.6601">
        <ele>2237.13</ele>
        <time>2021-12-06T12:41:27Z</time>
      </trkpt>
      <trkpt lat="45.38703" lon="6.66008">
        <ele>2236.64</ele>
        <time>2021-12-06T12:41:42Z</time>
      </trkpt>
      <trkpt lat="45.38709" lon="6.66003">
        <ele>2234.72</ele>
        <time>2021-12-06T12:41:57Z</time>
      </trkpt>
      <trkpt lat="45.38716" lon="6.65997">
        <ele>2231.84</ele>
        <time>2021-12-06T12:42:13Z</time>
      </trkpt>
      <trkpt lat="45.38721" lon="6.6599">
        <ele>2228.95</ele>
        <time>2021-12-06T12:42:27Z</time>
      </trkpt>
      <trkpt lat="45.38722" lon="6.65979">
        <ele>2226.55</ele>
        <time>2021-12-06T12:42:41Z</time>
      </trkpt>
      <trkpt lat="45.38727" lon="6.65974">
        <ele>2224.15</ele>
        <time>2021-12-06T12:42:59Z</time>
      </trkpt>
      <trkpt lat="45.3873" lon="6.65973">
        <ele>2222.22</ele>
        <time>2021-12-06T12:43:03Z</time>
      </trkpt>
      <trkpt lat="45.38735" lon="6.65968">
        <ele>2218.86</ele>
        <time>2021-12-06T12:43:12Z</time>
      </trkpt>
      <trkpt lat="45.38742" lon="6.65965">
        <ele>2215.5</ele>
        <time>2021-12-06T12:43:24Z</time>
      </trkpt>
      <trkpt lat="45.38743" lon="6.65964">
        <ele>2214.53</ele>
        <time>2021-12-06T12:43:27Z</time>
      </trkpt>
      <trkpt lat="45.38748" lon="6.65961">
        <ele>2211.17</ele>
        <time>2021-12-06T12:43:36Z</time>
      </trkpt>
      <trkpt lat="45.38751" lon="6.6596">
        <ele>2210.21</ele>
        <time>2021-12-06T12:43:40Z</time>
      </trkpt>
      <trkpt lat="45.38752" lon="6.6596">
        <ele>2210.21</ele>
        <time>2021-12-06T12:43:41Z</time>
      </trkpt>
      <trkpt lat="45.38756" lon="6.65957">
        <ele>2207.32</ele>
        <time>2021-12-06T12:43:48Z</time>
      </trkpt>
      <trkpt lat="45.38762" lon="6.65953">
        <ele>2203.96</ele>
        <time>2021-12-06T12:43:59Z</time>
      </trkpt>
      <trkpt lat="45.38767" lon="6.6595">
        <ele>2201.08</ele>
        <time>2021-12-06T12:44:07Z</time>
      </trkpt>
      <trkpt lat="45.38776" lon="6.65942">
        <ele>2198.67</ele>
        <time>2021-12-06T12:44:20Z</time>
      </trkpt>
      <trkpt lat="45.38783" lon="6.65936">
        <ele>2195.31</ele>
        <time>2021-12-06T12:44:35Z</time>
      </trkpt>
      <trkpt lat="45.38784" lon="6.65935">
        <ele>2195.79</ele>
        <time>2021-12-06T12:44:54Z</time>
      </trkpt>
      <trkpt lat="45.38786" lon="6.65937">
        <ele>2195.31</ele>
        <time>2021-12-06T12:45:17Z</time>
      </trkpt>
      <trkpt lat="45.38784" lon="6.65935">
        <ele>2195.31</ele>
        <time>2021-12-06T12:45:44Z</time>
      </trkpt>
      <trkpt lat="45.38785" lon="6.65934">
        <ele>2195.31</ele>
        <time>2021-12-06T12:46:06Z</time>
      </trkpt>
      <trkpt lat="45.38792" lon="6.65931">
        <ele>2195.79</ele>
        <time>2021-12-06T12:46:25Z</time>
      </trkpt>
      <trkpt lat="45.3879" lon="6.65932">
        <ele>2195.31</ele>
        <time>2021-12-06T12:46:47Z</time>
      </trkpt>
      <trkpt lat="45.38791" lon="6.65932">
        <ele>2195.31</ele>
        <time>2021-12-06T12:47:11Z</time>
      </trkpt>
      <trkpt lat="45.38792" lon="6.65929">
        <ele>2195.31</ele>
        <time>2021-12-06T12:47:37Z</time>
      </trkpt>
      <trkpt lat="45.38793" lon="6.6593">
        <ele>2195.31</ele>
        <time>2021-12-06T12:48:05Z</time>
      </trkpt>
      <trkpt lat="45.38795" lon="6.65929">
        <ele>2195.31</ele>
        <time>2021-12-06T12:48:34Z</time>
      </trkpt>
      <trkpt lat="45.38801" lon="6.65925">
        <ele>2193.87</ele>
        <time>2021-12-06T12:48:48Z</time>
      </trkpt>
      <trkpt lat="45.38812" lon="6.65922">
        <ele>2190.98</ele>
        <time>2021-12-06T12:49:03Z</time>
      </trkpt>
      <trkpt lat="45.38823" lon="6.65922">
        <ele>2190.02</ele>
        <time>2021-12-06T12:49:22Z</time>
      </trkpt>
      <trkpt lat="45.3884" lon="6.65925">
        <ele>2187.14</ele>
        <time>2021-12-06T12:49:44Z</time>
      </trkpt>
      <trkpt lat="45.38843" lon="6.65926">
        <ele>2187.14</ele>
        <time>2021-12-06T12:49:47Z</time>
      </trkpt>
      <trkpt lat="45.38857" lon="6.65929">
        <ele>2185.21</ele>
        <time>2021-12-06T12:50:09Z</time>
      </trkpt>
      <trkpt lat="45.38867" lon="6.65934">
        <ele>2184.73</ele>
        <time>2021-12-06T12:50:25Z</time>
      </trkpt>
      <trkpt lat="45.38877" lon="6.65945">
        <ele>2182.33</ele>
        <time>2021-12-06T12:50:43Z</time>
      </trkpt>
      <trkpt lat="45.38879" lon="6.65955">
        <ele>2179.93</ele>
        <time>2021-12-06T12:50:53Z</time>
      </trkpt>
      <trkpt lat="45.38882" lon="6.65958">
        <ele>2179.45</ele>
        <time>2021-12-06T12:50:57Z</time>
      </trkpt>
      <trkpt lat="45.38894" lon="6.65957">
        <ele>2176.56</ele>
        <time>2021-12-06T12:51:13Z</time>
      </trkpt>
      <trkpt lat="45.38905" lon="6.65955">
        <ele>2174.16</ele>
        <time>2021-12-06T12:51:28Z</time>
      </trkpt>
      <trkpt lat="45.38918" lon="6.65955">
        <ele>2172.24</ele>
        <time>2021-12-06T12:51:45Z</time>
      </trkpt>
      <trkpt lat="45.3893" lon="6.65952">
        <ele>2170.79</ele>
        <time>2021-12-06T12:52:04Z</time>
      </trkpt>
      <trkpt lat="45.38944" lon="6.65945">
        <ele>2167.91</ele>
        <time>2021-12-06T12:52:21Z</time>
      </trkpt>
      <trkpt lat="45.38952" lon="6.6594">
        <ele>2168.39</ele>
        <time>2021-12-06T12:52:38Z</time>
      </trkpt>
      <trkpt lat="45.38962" lon="6.65929">
        <ele>2168.87</ele>
        <time>2021-12-06T12:52:58Z</time>
      </trkpt>
      <trkpt lat="45.38963" lon="6.65927">
        <ele>2168.39</ele>
        <time>2021-12-06T12:53:01Z</time>
      </trkpt>
      <trkpt lat="45.38968" lon="6.65916">
        <ele>2167.91</ele>
        <time>2021-12-06T12:53:17Z</time>
      </trkpt>
      <trkpt lat="45.38969" lon="6.65915">
        <ele>2167.43</ele>
        <time>2021-12-06T12:53:36Z</time>
      </trkpt>
      <trkpt lat="45.38972" lon="6.65907">
        <ele>2166.47</ele>
        <time>2021-12-06T12:53:58Z</time>
      </trkpt>
      <trkpt lat="45.38977" lon="6.65893">
        <ele>2164.55</ele>
        <time>2021-12-06T12:54:13Z</time>
      </trkpt>
      <trkpt lat="45.38981" lon="6.65882">
        <ele>2162.14</ele>
        <time>2021-12-06T12:54:27Z</time>
      </trkpt>
      <trkpt lat="45.38985" lon="6.65871">
        <ele>2159.26</ele>
        <time>2021-12-06T12:54:39Z</time>
      </trkpt>
      <trkpt lat="45.38989" lon="6.65861">
        <ele>2155.89</ele>
        <time>2021-12-06T12:54:51Z</time>
      </trkpt>
      <trkpt lat="45.38993" lon="6.65856">
        <ele>2154.93</ele>
        <time>2021-12-06T12:54:58Z</time>
      </trkpt>
      <trkpt lat="45.39008" lon="6.65851">
        <ele>2152.53</ele>
        <time>2021-12-06T12:55:12Z</time>
      </trkpt>
      <trkpt lat="45.39015" lon="6.6585">
        <ele>2149.16</ele>
        <time>2021-12-06T12:55:23Z</time>
      </trkpt>
      <trkpt lat="45.39023" lon="6.65851">
        <ele>2146.28</ele>
        <time>2021-12-06T12:55:36Z</time>
      </trkpt>
      <trkpt lat="45.39033" lon="6.65853">
        <ele>2143.4</ele>
        <time>2021-12-06T12:55:52Z</time>
      </trkpt>
      <trkpt lat="45.39047" lon="6.65853">
        <ele>2140.99</ele>
        <time>2021-12-06T12:56:09Z</time>
      </trkpt>
      <trkpt lat="45.39058" lon="6.65852">
        <ele>2139.55</ele>
        <time>2021-12-06T12:56:23Z</time>
      </trkpt>
      <trkpt lat="45.3907" lon="6.65852">
        <ele>2137.15</ele>
        <time>2021-12-06T12:56:39Z</time>
      </trkpt>
      <trkpt lat="45.39083" lon="6.65853">
        <ele>2134.26</ele>
        <time>2021-12-06T12:56:56Z</time>
      </trkpt>
      <trkpt lat="45.39088" lon="6.65852">
        <ele>2132.34</ele>
        <time>2021-12-06T12:57:03Z</time>
      </trkpt>
      <trkpt lat="45.39095" lon="6.65851">
        <ele>2131.38</ele>
        <time>2021-12-06T12:57:15Z</time>
      </trkpt>
      <trkpt lat="45.39106" lon="6.65851">
        <ele>2128.98</ele>
        <time>2021-12-06T12:57:31Z</time>
      </trkpt>
      <trkpt lat="45.3911" lon="6.65849">
        <ele>2127.53</ele>
        <time>2021-12-06T12:57:38Z</time>
      </trkpt>
      <trkpt lat="45.39118" lon="6.65845">
        <ele>2124.65</ele>
        <time>2021-12-06T12:57:50Z</time>
      </trkpt>
      <trkpt lat="45.39125" lon="6.65842">
        <ele>2121.29</ele>
        <time>2021-12-06T12:58:00Z</time>
      </trkpt>
      <trkpt lat="45.3913" lon="6.6584">
        <ele>2117.92</ele>
        <time>2021-12-06T12:58:11Z</time>
      </trkpt>
      <trkpt lat="45.39137" lon="6.65836">
        <ele>2115.04</ele>
        <time>2021-12-06T12:58:23Z</time>
      </trkpt>
      <trkpt lat="45.39144" lon="6.65831">
        <ele>2112.15</ele>
        <time>2021-12-06T12:58:34Z</time>
      </trkpt>
      <trkpt lat="45.39154" lon="6.65826">
        <ele>2109.75</ele>
        <time>2021-12-06T12:58:48Z</time>
      </trkpt>
      <trkpt lat="45.39166" lon="6.65819">
        <ele>2107.35</ele>
        <time>2021-12-06T12:59:03Z</time>
      </trkpt>
      <trkpt lat="45.39173" lon="6.65814">
        <ele>2103.98</ele>
        <time>2021-12-06T12:59:15Z</time>
      </trkpt>
      <trkpt lat="45.39178" lon="6.6581">
        <ele>2101.58</ele>
        <time>2021-12-06T12:59:29Z</time>
      </trkpt>
      <trkpt lat="45.39185" lon="6.65807">
        <ele>2098.7</ele>
        <time>2021-12-06T12:59:39Z</time>
      </trkpt>
      <trkpt lat="45.39186" lon="6.65806">
        <ele>2098.21</ele>
        <time>2021-12-06T12:59:40Z</time>
      </trkpt>
      <trkpt lat="45.39192" lon="6.65804">
        <ele>2096.29</ele>
        <time>2021-12-06T12:59:46Z</time>
      </trkpt>
      <trkpt lat="45.39193" lon="6.65802">
        <ele>2096.29</ele>
        <time>2021-12-06T12:59:48Z</time>
      </trkpt>
      <trkpt lat="45.392" lon="6.65793">
        <ele>2091.97</ele>
        <time>2021-12-06T13:00:02Z</time>
      </trkpt>
      <trkpt lat="45.39209" lon="6.65783">
        <ele>2090.52</ele>
        <time>2021-12-06T13:00:18Z</time>
      </trkpt>
      <trkpt lat="45.39222" lon="6.65776">
        <ele>2088.6</ele>
        <time>2021-12-06T13:00:36Z</time>
      </trkpt>
      <trkpt lat="45.39234" lon="6.65768">
        <ele>2085.24</ele>
        <time>2021-12-06T13:00:55Z</time>
      </trkpt>
      <trkpt lat="45.39242" lon="6.65765">
        <ele>2084.28</ele>
        <time>2021-12-06T13:01:11Z</time>
      </trkpt>
      <trkpt lat="45.3925" lon="6.65759">
        <ele>2083.31</ele>
        <time>2021-12-06T13:01:24Z</time>
      </trkpt>
      <trkpt lat="45.39256" lon="6.65756">
        <ele>2081.87</ele>
        <time>2021-12-06T13:01:32Z</time>
      </trkpt>
      <trkpt lat="45.39265" lon="6.65748">
        <ele>2080.43</ele>
        <time>2021-12-06T13:01:49Z</time>
      </trkpt>
      <trkpt lat="45.39279" lon="6.65741">
        <ele>2078.51</ele>
        <time>2021-12-06T13:02:07Z</time>
      </trkpt>
      <trkpt lat="45.39291" lon="6.65738">
        <ele>2075.62</ele>
        <time>2021-12-06T13:02:23Z</time>
      </trkpt>
      <trkpt lat="45.39301" lon="6.65736">
        <ele>2073.22</ele>
        <time>2021-12-06T13:02:37Z</time>
      </trkpt>
      <trkpt lat="45.39312" lon="6.6573">
        <ele>2069.86</ele>
        <time>2021-12-06T13:02:53Z</time>
      </trkpt>
      <trkpt lat="45.39319" lon="6.65723">
        <ele>2067.93</ele>
        <time>2021-12-06T13:03:06Z</time>
      </trkpt>
      <trkpt lat="45.39327" lon="6.65716">
        <ele>2065.53</ele>
        <time>2021-12-06T13:03:21Z</time>
      </trkpt>
      <trkpt lat="45.39326" lon="6.65718">
        <ele>2065.53</ele>
        <time>2021-12-06T13:03:43Z</time>
      </trkpt>
      <trkpt lat="45.39325" lon="6.65717">
        <ele>2066.01</ele>
        <time>2021-12-06T13:04:09Z</time>
      </trkpt>
      <trkpt lat="45.39326" lon="6.6572">
        <ele>2065.53</ele>
        <time>2021-12-06T13:04:41Z</time>
      </trkpt>
      <trkpt lat="45.39328" lon="6.65719">
        <ele>2065.53</ele>
        <time>2021-12-06T13:05:08Z</time>
      </trkpt>
      <trkpt lat="45.39328" lon="6.65715">
        <ele>2065.53</ele>
        <time>2021-12-06T13:05:37Z</time>
      </trkpt>
      <trkpt lat="45.39329" lon="6.65715">
        <ele>2066.01</ele>
        <time>2021-12-06T13:06:05Z</time>
      </trkpt>
      <trkpt lat="45.39329" lon="6.65716">
        <ele>2065.53</ele>
        <time>2021-12-06T13:06:32Z</time>
      </trkpt>
      <trkpt lat="45.39341" lon="6.65714">
        <ele>2063.13</ele>
        <time>2021-12-06T13:06:47Z</time>
      </trkpt>
      <trkpt lat="45.39342" lon="6.65714">
        <ele>2063.13</ele>
        <time>2021-12-06T13:06:49Z</time>
      </trkpt>
      <trkpt lat="45.39356" lon="6.65713">
        <ele>2061.68</ele>
        <time>2021-12-06T13:07:03Z</time>
      </trkpt>
      <trkpt lat="45.39369" lon="6.65713">
        <ele>2059.76</ele>
        <time>2021-12-06T13:07:17Z</time>
      </trkpt>
      <trkpt lat="45.39382" lon="6.65713">
        <ele>2058.32</ele>
        <time>2021-12-06T13:07:31Z</time>
      </trkpt>
      <trkpt lat="45.39394" lon="6.65715">
        <ele>2056.88</ele>
        <time>2021-12-06T13:07:44Z</time>
      </trkpt>
      <trkpt lat="45.39409" lon="6.65718">
        <ele>2055.44</ele>
        <time>2021-12-06T13:08:00Z</time>
      </trkpt>
      <trkpt lat="45.39423" lon="6.65724">
        <ele>2053.03</ele>
        <time>2021-12-06T13:08:14Z</time>
      </trkpt>
      <trkpt lat="45.39439" lon="6.65731">
        <ele>2052.07</ele>
        <time>2021-12-06T13:08:30Z</time>
      </trkpt>
      <trkpt lat="45.39455" lon="6.65737">
        <ele>2051.11</ele>
        <time>2021-12-06T13:08:44Z</time>
      </trkpt>
      <trkpt lat="45.39469" lon="6.65742">
        <ele>2049.19</ele>
        <time>2021-12-06T13:08:59Z</time>
      </trkpt>
      <trkpt lat="45.3947" lon="6.65742">
        <ele>2049.67</ele>
        <time>2021-12-06T13:09:00Z</time>
      </trkpt>
      <trkpt lat="45.39471" lon="6.65742">
        <ele>2049.67</ele>
        <time>2021-12-06T13:09:02Z</time>
      </trkpt>
      <trkpt lat="45.39484" lon="6.65745">
        <ele>2047.26</ele>
        <time>2021-12-06T13:09:15Z</time>
      </trkpt>
      <trkpt lat="45.39494" lon="6.65748">
        <ele>2045.82</ele>
        <time>2021-12-06T13:09:26Z</time>
      </trkpt>
      <trkpt lat="45.39499" lon="6.6575">
        <ele>2045.82</ele>
        <time>2021-12-06T13:09:31Z</time>
      </trkpt>
      <trkpt lat="45.39512" lon="6.65757">
        <ele>2044.38</ele>
        <time>2021-12-06T13:09:45Z</time>
      </trkpt>
      <trkpt lat="45.39519" lon="6.65759">
        <ele>2043.9</ele>
        <time>2021-12-06T13:09:52Z</time>
      </trkpt>
      <trkpt lat="45.39532" lon="6.65774">
        <ele>2043.9</ele>
        <time>2021-12-06T13:10:09Z</time>
      </trkpt>
      <trkpt lat="45.39534" lon="6.65776">
        <ele>2043.9</ele>
        <time>2021-12-06T13:10:11Z</time>
      </trkpt>
      <trkpt lat="45.39539" lon="6.65782">
        <ele>2042.94</ele>
        <time>2021-12-06T13:10:18Z</time>
      </trkpt>
      <trkpt lat="45.39543" lon="6.65793">
        <ele>2041.98</ele>
        <time>2021-12-06T13:10:27Z</time>
      </trkpt>
      <trkpt lat="45.39543" lon="6.65812">
        <ele>2039.09</ele>
        <time>2021-12-06T13:10:41Z</time>
      </trkpt>
      <trkpt lat="45.39545" lon="6.65826">
        <ele>2037.17</ele>
        <time>2021-12-06T13:10:57Z</time>
      </trkpt>
      <trkpt lat="45.39545" lon="6.6583">
        <ele>2036.69</ele>
        <time>2021-12-06T13:11:00Z</time>
      </trkpt>
      <trkpt lat="45.3955" lon="6.6585">
        <ele>2033.33</ele>
        <time>2021-12-06T13:11:15Z</time>
      </trkpt>
      <trkpt lat="45.39556" lon="6.65865">
        <ele>2030.92</ele>
        <time>2021-12-06T13:11:30Z</time>
      </trkpt>
      <trkpt lat="45.39562" lon="6.65875">
        <ele>2029.48</ele>
        <time>2021-12-06T13:11:40Z</time>
      </trkpt>
      <trkpt lat="45.39566" lon="6.65885">
        <ele>2027.56</ele>
        <time>2021-12-06T13:11:49Z</time>
      </trkpt>
      <trkpt lat="45.39566" lon="6.65888">
        <ele>2026.6</ele>
        <time>2021-12-06T13:11:52Z</time>
      </trkpt>
      <trkpt lat="45.39566" lon="6.65897">
        <ele>2025.64</ele>
        <time>2021-12-06T13:11:58Z</time>
      </trkpt>
      <trkpt lat="45.39564" lon="6.65917">
        <ele>2021.79</ele>
        <time>2021-12-06T13:12:12Z</time>
      </trkpt>
      <trkpt lat="45.39563" lon="6.65933">
        <ele>2018.91</ele>
        <time>2021-12-06T13:12:25Z</time>
      </trkpt>
      <trkpt lat="45.39567" lon="6.65943">
        <ele>2016.02</ele>
        <time>2021-12-06T13:12:39Z</time>
      </trkpt>
      <trkpt lat="45.39575" lon="6.65948">
        <ele>2013.14</ele>
        <time>2021-12-06T13:12:52Z</time>
      </trkpt>
      <trkpt lat="45.39577" lon="6.65949">
        <ele>2012.18</ele>
        <time>2021-12-06T13:12:54Z</time>
      </trkpt>
      <trkpt lat="45.39585" lon="6.65956">
        <ele>2009.77</ele>
        <time>2021-12-06T13:13:03Z</time>
      </trkpt>
      <trkpt lat="45.39597" lon="6.65963">
        <ele>2005.93</ele>
        <time>2021-12-06T13:13:16Z</time>
      </trkpt>
      <trkpt lat="45.39606" lon="6.65967">
        <ele>2003.04</ele>
        <time>2021-12-06T13:13:27Z</time>
      </trkpt>
      <trkpt lat="45.39611" lon="6.65972">
        <ele>1999.68</ele>
        <time>2021-12-06T13:13:38Z</time>
      </trkpt>
      <trkpt lat="45.39609" lon="6.65988">
        <ele>1996.32</ele>
        <time>2021-12-06T13:13:51Z</time>
      </trkpt>
      <trkpt lat="45.39613" lon="6.65995">
        <ele>1992.95</ele>
        <time>2021-12-06T13:14:01Z</time>
      </trkpt>
      <trkpt lat="45.39622" lon="6.65998">
        <ele>1990.07</ele>
        <time>2021-12-06T13:14:12Z</time>
      </trkpt>
      <trkpt lat="45.39625" lon="6.66003">
        <ele>1987.66</ele>
        <time>2021-12-06T13:14:19Z</time>
      </trkpt>
      <trkpt lat="45.39623" lon="6.66015">
        <ele>1984.78</ele>
        <time>2021-12-06T13:14:29Z</time>
      </trkpt>
      <trkpt lat="45.39628" lon="6.66025">
        <ele>1981.41</ele>
        <time>2021-12-06T13:14:40Z</time>
      </trkpt>
      <trkpt lat="45.39632" lon="6.66033">
        <ele>1978.05</ele>
        <time>2021-12-06T13:14:50Z</time>
      </trkpt>
      <trkpt lat="45.39636" lon="6.66042">
        <ele>1974.69</ele>
        <time>2021-12-06T13:14:59Z</time>
      </trkpt>
      <trkpt lat="45.39636" lon="6.66043">
        <ele>1974.2</ele>
        <time>2021-12-06T13:15:00Z</time>
      </trkpt>
      <trkpt lat="45.3964" lon="6.66051">
        <ele>1970.84</ele>
        <time>2021-12-06T13:15:09Z</time>
      </trkpt>
      <trkpt lat="45.39644" lon="6.66062">
        <ele>1967.96</ele>
        <time>2021-12-06T13:15:20Z</time>
      </trkpt>
      <trkpt lat="45.39648" lon="6.66071">
        <ele>1964.59</ele>
        <time>2021-12-06T13:15:29Z</time>
      </trkpt>
      <trkpt lat="45.3965" lon="6.66075">
        <ele>1962.67</ele>
        <time>2021-12-06T13:15:34Z</time>
      </trkpt>
      <trkpt lat="45.39652" lon="6.66078">
        <ele>1961.23</ele>
        <time>2021-12-06T13:15:38Z</time>
      </trkpt>
      <trkpt lat="45.39656" lon="6.66085">
        <ele>1957.86</ele>
        <time>2021-12-06T13:15:47Z</time>
      </trkpt>
      <trkpt lat="45.3966" lon="6.66094">
        <ele>1954.98</ele>
        <time>2021-12-06T13:15:56Z</time>
      </trkpt>
      <trkpt lat="45.39666" lon="6.66102">
        <ele>1951.61</ele>
        <time>2021-12-06T13:16:05Z</time>
      </trkpt>
      <trkpt lat="45.39674" lon="6.6611">
        <ele>1949.21</ele>
        <time>2021-12-06T13:16:13Z</time>
      </trkpt>
      <trkpt lat="45.39678" lon="6.66116">
        <ele>1947.29</ele>
        <time>2021-12-06T13:16:18Z</time>
      </trkpt>
      <trkpt lat="45.39682" lon="6.66125">
        <ele>1943.44</ele>
        <time>2021-12-06T13:16:28Z</time>
      </trkpt>
      <trkpt lat="45.39687" lon="6.66134">
        <ele>1940.56</ele>
        <time>2021-12-06T13:16:38Z</time>
      </trkpt>
      <trkpt lat="45.39691" lon="6.66143">
        <ele>1937.19</ele>
        <time>2021-12-06T13:16:46Z</time>
      </trkpt>
      <trkpt lat="45.39697" lon="6.66153">
        <ele>1934.31</ele>
        <time>2021-12-06T13:16:56Z</time>
      </trkpt>
      <trkpt lat="45.39703" lon="6.66161">
        <ele>1930.95</ele>
        <time>2021-12-06T13:17:06Z</time>
      </trkpt>
      <trkpt lat="45.39708" lon="6.6617">
        <ele>1928.06</ele>
        <time>2021-12-06T13:17:16Z</time>
      </trkpt>
      <trkpt lat="45.39713" lon="6.66176">
        <ele>1926.14</ele>
        <time>2021-12-06T13:17:22Z</time>
      </trkpt>
      <trkpt lat="45.39718" lon="6.66184">
        <ele>1922.77</ele>
        <time>2021-12-06T13:17:31Z</time>
      </trkpt>
      <trkpt lat="45.39725" lon="6.66192">
        <ele>1919.89</ele>
        <time>2021-12-06T13:17:40Z</time>
      </trkpt>
      <trkpt lat="45.3973" lon="6.66199">
        <ele>1917.01</ele>
        <time>2021-12-06T13:17:48Z</time>
      </trkpt>
      <trkpt lat="45.39737" lon="6.66209">
        <ele>1915.08</ele>
        <time>2021-12-06T13:17:57Z</time>
      </trkpt>
      <trkpt lat="45.39746" lon="6.6622">
        <ele>1911.24</ele>
        <time>2021-12-06T13:18:10Z</time>
      </trkpt>
      <trkpt lat="45.39754" lon="6.66222">
        <ele>1908.83</ele>
        <time>2021-12-06T13:18:25Z</time>
      </trkpt>
      <trkpt lat="45.39765" lon="6.66233">
        <ele>1905.47</ele>
        <time>2021-12-06T13:18:39Z</time>
      </trkpt>
      <trkpt lat="45.39771" lon="6.66241">
        <ele>1902.11</ele>
        <time>2021-12-06T13:18:50Z</time>
      </trkpt>
      <trkpt lat="45.39773" lon="6.66243">
        <ele>1901.63</ele>
        <time>2021-12-06T13:18:52Z</time>
      </trkpt>
      <trkpt lat="45.39775" lon="6.66244">
        <ele>1900.66</ele>
        <time>2021-12-06T13:18:54Z</time>
      </trkpt>
      <trkpt lat="45.39783" lon="6.66252">
        <ele>1897.3</ele>
        <time>2021-12-06T13:19:06Z</time>
      </trkpt>
      <trkpt lat="45.39788" lon="6.6626">
        <ele>1894.42</ele>
        <time>2021-12-06T13:19:15Z</time>
      </trkpt>
      <trkpt lat="45.39794" lon="6.66267">
        <ele>1891.05</ele>
        <time>2021-12-06T13:19:27Z</time>
      </trkpt>
      <trkpt lat="45.39795" lon="6.66274">
        <ele>1888.17</ele>
        <time>2021-12-06T13:19:37Z</time>
      </trkpt>
      <trkpt lat="45.39798" lon="6.66276">
        <ele>1886.24</ele>
        <time>2021-12-06T13:19:43Z</time>
      </trkpt>
      <trkpt lat="45.39803" lon="6.66283">
        <ele>1882.88</ele>
        <time>2021-12-06T13:19:54Z</time>
      </trkpt>
      <trkpt lat="45.3981" lon="6.66291">
        <ele>1879.51</ele>
        <time>2021-12-06T13:20:06Z</time>
      </trkpt>
      <trkpt lat="45.39815" lon="6.66296">
        <ele>1876.63</ele>
        <time>2021-12-06T13:20:15Z</time>
      </trkpt>
      <trkpt lat="45.3982" lon="6.66304">
        <ele>1873.75</ele>
        <time>2021-12-06T13:20:27Z</time>
      </trkpt>
      <trkpt lat="45.3982" lon="6.66305">
        <ele>1871.82</ele>
        <time>2021-12-06T13:20:44Z</time>
      </trkpt>
      <trkpt lat="45.39819" lon="6.66304">
        <ele>1872.3</ele>
        <time>2021-12-06T13:21:12Z</time>
      </trkpt>
      <trkpt lat="45.39818" lon="6.663">
        <ele>1872.3</ele>
        <time>2021-12-06T13:21:33Z</time>
      </trkpt>
      <trkpt lat="45.39821" lon="6.66308">
        <ele>1872.79</ele>
        <time>2021-12-06T13:21:56Z</time>
      </trkpt>
      <trkpt lat="45.39823" lon="6.66307">
        <ele>1872.79</ele>
        <time>2021-12-06T13:22:22Z</time>
      </trkpt>
      <trkpt lat="45.39823" lon="6.66304">
        <ele>1872.79</ele>
        <time>2021-12-06T13:22:46Z</time>
      </trkpt>
      <trkpt lat="45.39819" lon="6.66305">
        <ele>1873.27</ele>
        <time>2021-12-06T13:23:13Z</time>
      </trkpt>
      <trkpt lat="45.39821" lon="6.66302">
        <ele>1873.27</ele>
        <time>2021-12-06T13:23:42Z</time>
      </trkpt>
      <trkpt lat="45.39821" lon="6.66303">
        <ele>1873.27</ele>
        <time>2021-12-06T13:24:02Z</time>
      </trkpt>
      <trkpt lat="45.39825" lon="6.66304">
        <ele>1873.27</ele>
        <time>2021-12-06T13:24:31Z</time>
      </trkpt>
      <trkpt lat="45.39821" lon="6.66302">
        <ele>1873.27</ele>
        <time>2021-12-06T13:25:02Z</time>
      </trkpt>
      <trkpt lat="45.39821" lon="6.66304">
        <ele>1873.27</ele>
        <time>2021-12-06T13:25:31Z</time>
      </trkpt>
      <trkpt lat="45.39824" lon="6.66306">
        <ele>1873.27</ele>
        <time>2021-12-06T13:25:59Z</time>
      </trkpt>
      <trkpt lat="45.39824" lon="6.66306">
        <ele>1873.75</ele>
        <time>2021-12-06T13:26:25Z</time>
      </trkpt>
      <trkpt lat="45.39825" lon="6.66306">
        <ele>1872.79</ele>
        <time>2021-12-06T13:26:38Z</time>
      </trkpt>
      <trkpt lat="45.39835" lon="6.66309">
        <ele>1869.9</ele>
        <time>2021-12-06T13:26:46Z</time>
      </trkpt>
      <trkpt lat="45.39836" lon="6.66309">
        <ele>1869.9</ele>
        <time>2021-12-06T13:26:47Z</time>
      </trkpt>
      <trkpt lat="45.39845" lon="6.6631">
        <ele>1866.54</ele>
        <time>2021-12-06T13:26:59Z</time>
      </trkpt>
      <trkpt lat="45.39856" lon="6.66311">
        <ele>1863.65</ele>
        <time>2021-12-06T13:27:11Z</time>
      </trkpt>
      <trkpt lat="45.39865" lon="6.66312">
        <ele>1860.77</ele>
        <time>2021-12-06T13:27:22Z</time>
      </trkpt>
      <trkpt lat="45.39873" lon="6.66312">
        <ele>1858.85</ele>
        <time>2021-12-06T13:27:37Z</time>
      </trkpt>
      <trkpt lat="45.3988" lon="6.66308">
        <ele>1855.48</ele>
        <time>2021-12-06T13:27:50Z</time>
      </trkpt>
      <trkpt lat="45.39886" lon="6.66306">
        <ele>1854.52</ele>
        <time>2021-12-06T13:28:04Z</time>
      </trkpt>
      <trkpt lat="45.39898" lon="6.66305">
        <ele>1851.16</ele>
        <time>2021-12-06T13:28:19Z</time>
      </trkpt>
      <trkpt lat="45.39906" lon="6.66302">
        <ele>1848.75</ele>
        <time>2021-12-06T13:28:34Z</time>
      </trkpt>
      <trkpt lat="45.39912" lon="6.66302">
        <ele>1847.31</ele>
        <time>2021-12-06T13:28:48Z</time>
      </trkpt>
      <trkpt lat="45.39921" lon="6.66302">
        <ele>1844.91</ele>
        <time>2021-12-06T13:29:00Z</time>
      </trkpt>
      <trkpt lat="45.39929" lon="6.66301">
        <ele>1842.5</ele>
        <time>2021-12-06T13:29:10Z</time>
      </trkpt>
      <trkpt lat="45.39932" lon="6.66301">
        <ele>1842.02</ele>
        <time>2021-12-06T13:29:13Z</time>
      </trkpt>
      <trkpt lat="45.39936" lon="6.66299">
        <ele>1840.58</ele>
        <time>2021-12-06T13:29:22Z</time>
      </trkpt>
      <trkpt lat="45.39949" lon="6.66299">
        <ele>1837.7</ele>
        <time>2021-12-06T13:29:36Z</time>
      </trkpt>
      <trkpt lat="45.39957" lon="6.663">
        <ele>1836.26</ele>
        <time>2021-12-06T13:29:52Z</time>
      </trkpt>
      <trkpt lat="45.39967" lon="6.66298">
        <ele>1833.37</ele>
        <time>2021-12-06T13:30:04Z</time>
      </trkpt>
      <trkpt lat="45.39977" lon="6.66298">
        <ele>1830.01</ele>
        <time>2021-12-06T13:30:18Z</time>
      </trkpt>
      <trkpt lat="45.39987" lon="6.66296">
        <ele>1826.64</ele>
        <time>2021-12-06T13:30:32Z</time>
      </trkpt>
      <trkpt lat="45.39995" lon="6.66298">
        <ele>1823.76</ele>
        <time>2021-12-06T13:30:45Z</time>
      </trkpt>
      <trkpt lat="45.39999" lon="6.66298">
        <ele>1822.32</ele>
        <time>2021-12-06T13:30:50Z</time>
      </trkpt>
      <trkpt lat="45.40015" lon="6.66296">
        <ele>1820.39</ele>
        <time>2021-12-06T13:31:05Z</time>
      </trkpt>
      <trkpt lat="45.40024" lon="6.66295">
        <ele>1817.03</ele>
        <time>2021-12-06T13:31:20Z</time>
      </trkpt>
      <trkpt lat="45.40033" lon="6.66294">
        <ele>1815.11</ele>
        <time>2021-12-06T13:31:32Z</time>
      </trkpt>
      <trkpt lat="45.40046" lon="6.66295">
        <ele>1812.22</ele>
        <time>2021-12-06T13:31:47Z</time>
      </trkpt>
      <trkpt lat="45.40059" lon="6.66291">
        <ele>1810.3</ele>
        <time>2021-12-06T13:32:02Z</time>
      </trkpt>
      <trkpt lat="45.40069" lon="6.66292">
        <ele>1807.9</ele>
        <time>2021-12-06T13:32:17Z</time>
      </trkpt>
      <trkpt lat="45.40079" lon="6.66292">
        <ele>1805.01</ele>
        <time>2021-12-06T13:32:31Z</time>
      </trkpt>
      <trkpt lat="45.40092" lon="6.66292">
        <ele>1802.61</ele>
        <time>2021-12-06T13:32:46Z</time>
      </trkpt>
      <trkpt lat="45.40104" lon="6.66297">
        <ele>1799.73</ele>
        <time>2021-12-06T13:33:02Z</time>
      </trkpt>
      <trkpt lat="45.40119" lon="6.66303">
        <ele>1797.8</ele>
        <time>2021-12-06T13:33:19Z</time>
      </trkpt>
      <trkpt lat="45.40131" lon="6.66306">
        <ele>1795.88</ele>
        <time>2021-12-06T13:33:35Z</time>
      </trkpt>
      <trkpt lat="45.40147" lon="6.66303">
        <ele>1795.4</ele>
        <time>2021-12-06T13:33:51Z</time>
      </trkpt>
      <trkpt lat="45.4016" lon="6.66297">
        <ele>1794.44</ele>
        <time>2021-12-06T13:34:04Z</time>
      </trkpt>
      <trkpt lat="45.40175" lon="6.66291">
        <ele>1794.44</ele>
        <time>2021-12-06T13:34:19Z</time>
      </trkpt>
      <trkpt lat="45.40189" lon="6.66288">
        <ele>1793.48</ele>
        <time>2021-12-06T13:34:32Z</time>
      </trkpt>
      <trkpt lat="45.40206" lon="6.66284">
        <ele>1793</ele>
        <time>2021-12-06T13:34:47Z</time>
      </trkpt>
      <trkpt lat="45.40222" lon="6.66286">
        <ele>1792.52</ele>
        <time>2021-12-06T13:35:02Z</time>
      </trkpt>
      <trkpt lat="45.40233" lon="6.66284">
        <ele>1792.52</ele>
        <time>2021-12-06T13:35:17Z</time>
      </trkpt>
      <trkpt lat="45.40234" lon="6.66284">
        <ele>1792.52</ele>
        <time>2021-12-06T13:35:33Z</time>
      </trkpt>
      <trkpt lat="45.40238" lon="6.66284">
        <ele>1792.52</ele>
        <time>2021-12-06T13:35:50Z</time>
      </trkpt>
      <trkpt lat="45.40238" lon="6.66283">
        <ele>1792.52</ele>
        <time>2021-12-06T13:36:12Z</time>
      </trkpt>
      <trkpt lat="45.40242" lon="6.66282">
        <ele>1792.52</ele>
        <time>2021-12-06T13:36:31Z</time>
      </trkpt>
      <trkpt lat="45.40239" lon="6.66278">
        <ele>1792.03</ele>
        <time>2021-12-06T13:36:54Z</time>
      </trkpt>
      <trkpt lat="45.40244" lon="6.66277">
        <ele>1793</ele>
        <time>2021-12-06T13:37:17Z</time>
      </trkpt>
      <trkpt lat="45.40241" lon="6.66279">
        <ele>1793</ele>
        <time>2021-12-06T13:37:37Z</time>
      </trkpt>
      <trkpt lat="45.40242" lon="6.66277">
        <ele>1793</ele>
        <time>2021-12-06T13:37:56Z</time>
      </trkpt>
      <trkpt lat="45.40246" lon="6.66278">
        <ele>1792.52</ele>
        <time>2021-12-06T13:38:27Z</time>
      </trkpt>
      <trkpt lat="45.40244" lon="6.66281">
        <ele>1792.52</ele>
        <time>2021-12-06T13:38:54Z</time>
      </trkpt>
      <trkpt lat="45.40244" lon="6.66277">
        <ele>1792.52</ele>
        <time>2021-12-06T13:39:25Z</time>
      </trkpt>
      <trkpt lat="45.40249" lon="6.66274">
        <ele>1792.52</ele>
        <time>2021-12-06T13:39:53Z</time>
      </trkpt>
      <trkpt lat="45.4026" lon="6.66269">
        <ele>1790.59</ele>
        <time>2021-12-06T13:40:08Z</time>
      </trkpt>
      <trkpt lat="45.40268" lon="6.66265">
        <ele>1789.63</ele>
        <time>2021-12-06T13:40:24Z</time>
      </trkpt>
      <trkpt lat="45.4028" lon="6.66259">
        <ele>1789.15</ele>
        <time>2021-12-06T13:40:39Z</time>
      </trkpt>
      <trkpt lat="45.40292" lon="6.66253">
        <ele>1787.71</ele>
        <time>2021-12-06T13:40:54Z</time>
      </trkpt>
      <trkpt lat="45.403" lon="6.6625">
        <ele>1786.27</ele>
        <time>2021-12-06T13:41:15Z</time>
      </trkpt>
      <trkpt lat="45.40311" lon="6.66247">
        <ele>1783.38</ele>
        <time>2021-12-06T13:41:29Z</time>
      </trkpt>
      <trkpt lat="45.40325" lon="6.66243">
        <ele>1781.46</ele>
        <time>2021-12-06T13:41:44Z</time>
      </trkpt>
      <trkpt lat="45.4034" lon="6.66241">
        <ele>1780.02</ele>
        <time>2021-12-06T13:42:00Z</time>
      </trkpt>
      <trkpt lat="45.40348" lon="6.66241">
        <ele>1779.06</ele>
        <time>2021-12-06T13:42:12Z</time>
      </trkpt>
      <trkpt lat="45.4035" lon="6.6624">
        <ele>1779.06</ele>
        <time>2021-12-06T13:42:15Z</time>
      </trkpt>
      <trkpt lat="45.40365" lon="6.66238">
        <ele>1776.65</ele>
        <time>2021-12-06T13:42:30Z</time>
      </trkpt>
      <trkpt lat="45.40379" lon="6.66235">
        <ele>1775.21</ele>
        <time>2021-12-06T13:42:45Z</time>
      </trkpt>
      <trkpt lat="45.4038" lon="6.66234">
        <ele>1775.21</ele>
        <time>2021-12-06T13:42:48Z</time>
      </trkpt>
      <trkpt lat="45.40382" lon="6.66233">
        <ele>1774.25</ele>
        <time>2021-12-06T13:42:50Z</time>
      </trkpt>
      <trkpt lat="45.40392" lon="6.66232">
        <ele>1773.77</ele>
        <time>2021-12-06T13:43:04Z</time>
      </trkpt>
      <trkpt lat="45.40404" lon="6.66228">
        <ele>1771.85</ele>
        <time>2021-12-06T13:43:20Z</time>
      </trkpt>
      <trkpt lat="45.40418" lon="6.66222">
        <ele>1769.44</ele>
        <time>2021-12-06T13:43:36Z</time>
      </trkpt>
      <trkpt lat="45.40426" lon="6.66215">
        <ele>1767.04</ele>
        <time>2021-12-06T13:43:47Z</time>
      </trkpt>
      <trkpt lat="45.40435" lon="6.6621">
        <ele>1764.64</ele>
        <time>2021-12-06T13:43:58Z</time>
      </trkpt>
      <trkpt lat="45.40447" lon="6.66206">
        <ele>1761.75</ele>
        <time>2021-12-06T13:44:10Z</time>
      </trkpt>
      <trkpt lat="45.40448" lon="6.66207">
        <ele>1761.27</ele>
        <time>2021-12-06T13:44:14Z</time>
      </trkpt>
      <trkpt lat="45.40451" lon="6.66206">
        <ele>1760.79</ele>
        <time>2021-12-06T13:44:17Z</time>
      </trkpt>
      <trkpt lat="45.40462" lon="6.66197">
        <ele>1757.91</ele>
        <time>2021-12-06T13:44:31Z</time>
      </trkpt>
      <trkpt lat="45.40469" lon="6.66194">
        <ele>1755.02</ele>
        <time>2021-12-06T13:44:41Z</time>
      </trkpt>
      <trkpt lat="45.40475" lon="6.6619">
        <ele>1752.62</ele>
        <time>2021-12-06T13:44:49Z</time>
      </trkpt>
      <trkpt lat="45.40478" lon="6.66187">
        <ele>1751.66</ele>
        <time>2021-12-06T13:44:54Z</time>
      </trkpt>
      <trkpt lat="45.4049" lon="6.66179">
        <ele>1749.26</ele>
        <time>2021-12-06T13:45:08Z</time>
      </trkpt>
      <trkpt lat="45.40499" lon="6.66173">
        <ele>1746.37</ele>
        <time>2021-12-06T13:45:21Z</time>
      </trkpt>
      <trkpt lat="45.40511" lon="6.6617">
        <ele>1743.49</ele>
        <time>2021-12-06T13:45:33Z</time>
      </trkpt>
      <trkpt lat="45.40523" lon="6.66161">
        <ele>1742.05</ele>
        <time>2021-12-06T13:45:47Z</time>
      </trkpt>
      <trkpt lat="45.40534" lon="6.66149">
        <ele>1741.08</ele>
        <time>2021-12-06T13:46:02Z</time>
      </trkpt>
      <trkpt lat="45.40539" lon="6.66145">
        <ele>1740.6</ele>
        <time>2021-12-06T13:46:21Z</time>
      </trkpt>
      <trkpt lat="45.40539" lon="6.66147">
        <ele>1740.6</ele>
        <time>2021-12-06T13:46:54Z</time>
      </trkpt>
      <trkpt lat="45.40539" lon="6.66147">
        <ele>1740.6</ele>
        <time>2021-12-06T13:47:23Z</time>
      </trkpt>
      <trkpt lat="45.4054" lon="6.66145">
        <ele>1740.6</ele>
        <time>2021-12-06T13:47:46Z</time>
      </trkpt>
      <trkpt lat="45.40548" lon="6.66131">
        <ele>1739.16</ele>
        <time>2021-12-06T13:48:02Z</time>
      </trkpt>
      <trkpt lat="45.4056" lon="6.66115">
        <ele>1739.16</ele>
        <time>2021-12-06T13:48:18Z</time>
      </trkpt>
      <trkpt lat="45.4057" lon="6.66104">
        <ele>1738.68</ele>
        <time>2021-12-06T13:48:31Z</time>
      </trkpt>
      <trkpt lat="45.40581" lon="6.66092">
        <ele>1737.72</ele>
        <time>2021-12-06T13:48:44Z</time>
      </trkpt>
      <trkpt lat="45.40587" lon="6.66087">
        <ele>1737.72</ele>
        <time>2021-12-06T13:48:50Z</time>
      </trkpt>
      <trkpt lat="45.40598" lon="6.66069">
        <ele>1735.8</ele>
        <time>2021-12-06T13:49:07Z</time>
      </trkpt>
      <trkpt lat="45.40608" lon="6.66053">
        <ele>1734.84</ele>
        <time>2021-12-06T13:49:22Z</time>
      </trkpt>
      <trkpt lat="45.40621" lon="6.66039">
        <ele>1733.88</ele>
        <time>2021-12-06T13:49:37Z</time>
      </trkpt>
      <trkpt lat="45.40631" lon="6.6603">
        <ele>1732.43</ele>
        <time>2021-12-06T13:49:49Z</time>
      </trkpt>
      <trkpt lat="45.40648" lon="6.66025">
        <ele>1731.47</ele>
        <time>2021-12-06T13:50:04Z</time>
      </trkpt>
      <trkpt lat="45.40663" lon="6.66022">
        <ele>1730.03</ele>
        <time>2021-12-06T13:50:19Z</time>
      </trkpt>
      <trkpt lat="45.40677" lon="6.66019">
        <ele>1728.11</ele>
        <time>2021-12-06T13:50:32Z</time>
      </trkpt>
      <trkpt lat="45.4069" lon="6.66017">
        <ele>1725.7</ele>
        <time>2021-12-06T13:50:45Z</time>
      </trkpt>
      <trkpt lat="45.40693" lon="6.66016">
        <ele>1725.22</ele>
        <time>2021-12-06T13:50:49Z</time>
      </trkpt>
      <trkpt lat="45.40711" lon="6.66018">
        <ele>1721.38</ele>
        <time>2021-12-06T13:51:04Z</time>
      </trkpt>
      <trkpt lat="45.40729" lon="6.66019">
        <ele>1718.97</ele>
        <time>2021-12-06T13:51:20Z</time>
      </trkpt>
      <trkpt lat="45.40744" lon="6.66024">
        <ele>1717.53</ele>
        <time>2021-12-06T13:51:36Z</time>
      </trkpt>
      <trkpt lat="45.40762" lon="6.66026">
        <ele>1717.05</ele>
        <time>2021-12-06T13:51:53Z</time>
      </trkpt>
      <trkpt lat="45.40775" lon="6.6602">
        <ele>1716.09</ele>
        <time>2021-12-06T13:52:07Z</time>
      </trkpt>
      <trkpt lat="45.40784" lon="6.66028">
        <ele>1715.61</ele>
        <time>2021-12-06T13:52:22Z</time>
      </trkpt>
      <trkpt lat="45.40787" lon="6.66036">
        <ele>1715.61</ele>
        <time>2021-12-06T13:52:39Z</time>
      </trkpt>
      <trkpt lat="45.40788" lon="6.66035">
        <ele>1716.09</ele>
        <time>2021-12-06T13:52:59Z</time>
      </trkpt>
      <trkpt lat="45.40786" lon="6.66035">
        <ele>1716.09</ele>
        <time>2021-12-06T13:53:24Z</time>
      </trkpt>
      <trkpt lat="45.40789" lon="6.66039">
        <ele>1717.53</ele>
        <time>2021-12-06T13:53:41Z</time>
      </trkpt>
      <trkpt lat="45.40789" lon="6.66038">
        <ele>1717.05</ele>
        <time>2021-12-06T13:54:09Z</time>
      </trkpt>
    </trkseg>
  </trk>
</gpx>